Observation data for Palo Duro Canyon State Park Rim on 06/20/2019      Previous  Date  Next       Current Mesonet Observations  Soil Data  Daily Summary Page  Observations in Plain Language
KPD1 200500Z 14006KT 23/14 A2987 RMK A01 T02300142  RH  058%=      5-min Rain = 0
KPD1 200501Z 13007KT 23/14 A2987 RMK A01 T02290143  RH  058%=      5-min Rain = 0
KPD1 200502Z 13005KT 23/14 A2987 RMK A01 T02290143  RH  059%=      5-min Rain = 0
KPD1 200503Z 14007KT 23/14 A2987 RMK A01 T02290144  RH  059%=      5-min Rain = 0
KPD1 200504Z 15007KT 23/14 A2987 RMK A01 T02280144  RH  059%=      5-min Rain = 0
KPD1 200505Z 14005KT 23/15 A2987 RMK A01 T02290145  RH  059%=      5-min Rain = 0
KPD1 200506Z 14006KT 23/14 A2987 RMK A01 T02290144  RH  059%=      5-min Rain = 0
KPD1 200507Z 14006KT 23/14 A2987 RMK A01 T02290144  RH  059%=      5-min Rain = 0
KPD1 200508Z 14005KT 23/14 A2987 RMK A01 T02280144  RH  059%=      5-min Rain = 0
KPD1 200509Z 14006KT 23/15 A2987 RMK A01 T02290145  RH  059%=      5-min Rain = 0
KPD1 200510Z 13007KT 23/15 A2987 RMK A01 T02280145  RH  059%=      5-min Rain = 0
KPD1 200511Z 14007KT 23/15 A2987 RMK A01 T02270145  RH  059%=      5-min Rain = 0
KPD1 200512Z 14006KT 23/15 A2987 RMK A01 T02280145  RH  059%=      5-min Rain = 0
KPD1 200513Z 15007KT 23/15 A2987 RMK A01 T02290145  RH  059%=      5-min Rain = 0
KPD1 200514Z 15007KT 23/15 A2987 RMK A01 T02290145  RH  059%=      5-min Rain = 0
KPD1 200515Z 15006KT 23/15 A2987 RMK A01 T02290146  RH  059%=      5-min Rain = 0
KPD1 200516Z 15006KT 23/15 A2987 RMK A01 T02280145  RH  059%=      5-min Rain = 0
KPD1 200517Z 15005KT 23/15 A2987 RMK A01 T02290145  RH  059%=      5-min Rain = 0
KPD1 200518Z 14008KT 23/15 A2987 RMK A01 T02280145  RH  059%=      5-min Rain = 0
KPD1 200519Z 14007KT 23/15 A2987 RMK A01 T02270146  RH  060%=      5-min Rain = 0
KPD1 200520Z 14005KT 23/15 A2987 RMK A01 T02270146  RH  060%=      5-min Rain = 0
KPD1 200521Z 15006KT 23/15 A2987 RMK A01 T02270146  RH  060%=      5-min Rain = 0
KPD1 200522Z 16005KT 23/15 A2988 RMK A01 T02270146  RH  060%=      5-min Rain = 0
KPD1 200523Z 15005KT 23/15 A2988 RMK A01 T02260145  RH  060%=      5-min Rain = 0
KPD1 200524Z 15006KT 23/15 A2988 RMK A01 T02260146  RH  061%=      5-min Rain = 0
KPD1 200525Z 15005KT 23/15 A2988 RMK A01 T02250146  RH  061%=      5-min Rain = 0
KPD1 200526Z 14004KT 22/15 A2988 RMK A01 T02240146  RH  061%=      5-min Rain = 0
KPD1 200527Z 15004KT 22/15 A2988 RMK A01 T02240146  RH  061%=      5-min Rain = 0
KPD1 200528Z 15005KT 22/15 A2988 RMK A01 T02240145  RH  061%=      5-min Rain = 0
KPD1 200529Z 15004KT 22/15 A2988 RMK A01 T02230145  RH  061%=      5-min Rain = 0
KPD1 200530Z 14005KT 22/15 A2988 RMK A01 T02220146  RH  062%=      5-min Rain = 0
KPD1 200531Z 15005KT 22/15 A2988 RMK A01 T02220146  RH  062%=      5-min Rain = 0
KPD1 200532Z 14006KT 22/15 A2988 RMK A01 T02210146  RH  062%=      5-min Rain = 0
KPD1 200533Z 15004KT 22/15 A2988 RMK A01 T02210146  RH  062%=      5-min Rain = 0
KPD1 200534Z 14006KT 22/15 A2988 RMK A01 T02210146  RH  062%=      5-min Rain = 0
KPD1 200535Z 15006KT 22/15 A2988 RMK A01 T02210147  RH  063%=      5-min Rain = 0
KPD1 200536Z 15006KT 22/15 A2988 RMK A01 T02210148  RH  063%=      5-min Rain = 0
KPD1 200537Z 16005KT 22/15 A2988 RMK A01 T02210147  RH  063%=      5-min Rain = 0
KPD1 200538Z 16005KT 22/15 A2988 RMK A01 T02200147  RH  063%=      5-min Rain = 0
KPD1 200539Z 15004KT 22/15 A2988 RMK A01 T02200147  RH  063%=      5-min Rain = 0
KPD1 200540Z 15004KT 22/15 A2988 RMK A01 T02190147  RH  064%=      5-min Rain = 0
KPD1 200541Z 15005KT 22/15 A2988 RMK A01 T02190147  RH  064%=      5-min Rain = 0
KPD1 200542Z 15005KT 22/15 A2988 RMK A01 T02180147  RH  064%=      5-min Rain = 0
KPD1 200543Z 16004KT 22/15 A2988 RMK A01 T02170147  RH  064%=      5-min Rain = 0
KPD1 200544Z 16004KT 22/15 A2988 RMK A01 T02170147  RH  064%=      5-min Rain = 0
KPD1 200545Z 15006KT 22/15 A2988 RMK A01 T02170146  RH  064%=      5-min Rain = 0
KPD1 200546Z 15006KT 22/15 A2988 RMK A01 T02170146  RH  064%=      5-min Rain = 0
KPD1 200547Z 15004KT 22/15 A2988 RMK A01 T02170146  RH  064%=      5-min Rain = 0
KPD1 200548Z 15004KT 22/15 A2988 RMK A01 T02180147  RH  064%=      5-min Rain = 0
KPD1 200549Z 15004KT 22/15 A2987 RMK A01 T02180147  RH  064%=      5-min Rain = 0
KPD1 200550Z 15004KT 22/15 A2987 RMK A01 T02170147  RH  064%=      5-min Rain = 0
KPD1 200551Z 16005KT 22/15 A2988 RMK A01 T02160147  RH  065%=      5-min Rain = 0
KPD1 200552Z 16005KT 22/15 A2988 RMK A01 T02160148  RH  065%=      5-min Rain = 0
KPD1 200553Z 16005KT 22/15 A2988 RMK A01 T02150147  RH  065%=      5-min Rain = 0
KPD1 200554Z 15005KT 22/15 A2987 RMK A01 T02150147  RH  065%=      5-min Rain = 0
KPD1 200555Z 16004KT 22/15 A2987 RMK A01 T02150148  RH  065%=      5-min Rain = 0
KPD1 200556Z 16004KT 21/15 A2988 RMK A01 T02140147  RH  065%=      5-min Rain = 0
KPD1 200557Z 15004KT 22/15 A2987 RMK A01 T02150147  RH  065%=      5-min Rain = 0
KPD1 200558Z 15005KT 21/15 A2987 RMK A01 T02140147  RH  065%=      5-min Rain = 0
KPD1 200559Z 15005KT 22/15 A2987 RMK A01 T02150147  RH  065%=      5-min Rain = 0
KPD1 200600Z 15004KT 22/15 A2987 RMK A01 T02150147  RH  065%=      5-min Rain = 0
KPD1 200601Z 15004KT 22/15 A2987 RMK A01 T02150147  RH  065%=      5-min Rain = 0
KPD1 200602Z 14003KT 21/15 A2987 RMK A01 T02140146  RH  065%=      5-min Rain = 0
KPD1 200603Z 15004KT 22/15 A2987 RMK A01 T02150147  RH  065%=      5-min Rain = 0
KPD1 200604Z 15005KT 21/15 A2987 RMK A01 T02140146  RH  065%=      5-min Rain = 0
KPD1 200605Z 15004KT 21/15 A2987 RMK A01 T02140147  RH  065%=      5-min Rain = 0
KPD1 200606Z 15004KT 21/15 A2987 RMK A01 T02140147  RH  065%=      5-min Rain = 0
KPD1 200607Z 15003KT 21/15 A2987 RMK A01 T02140147  RH  065%=      5-min Rain = 0
KPD1 200608Z 14004KT 21/15 A2987 RMK A01 T02140147  RH  065%=      5-min Rain = 0
KPD1 200609Z 15003KT 21/15 A2987 RMK A01 T02140147  RH  066%=      5-min Rain = 0
KPD1 200610Z 14004KT 21/15 A2987 RMK A01 T02130146  RH  066%=      5-min Rain = 0
KPD1 200611Z 15003KT 21/15 A2987 RMK A01 T02130147  RH  066%=      5-min Rain = 0
KPD1 200612Z 14003KT 21/15 A2987 RMK A01 T02120146  RH  066%=      5-min Rain = 0
KPD1 200613Z 15004KT 21/15 A2987 RMK A01 T02110146  RH  066%=      5-min Rain = 0
KPD1 200614Z 14004KT 21/15 A2987 RMK A01 T02100146  RH  067%=      5-min Rain = 0
KPD1 200615Z 15004KT 21/15 A2987 RMK A01 T02100146  RH  067%=      5-min Rain = 0
KPD1 200616Z 14004KT 21/15 A2987 RMK A01 T02090146  RH  067%=      5-min Rain = 0
KPD1 200617Z 14005KT 21/15 A2987 RMK A01 T02090146  RH  067%=      5-min Rain = 0
KPD1 200618Z 15005KT 21/15 A2987 RMK A01 T02090146  RH  067%=      5-min Rain = 0
KPD1 200619Z 15005KT 21/15 A2987 RMK A01 T02090147  RH  068%=      5-min Rain = 0
KPD1 200620Z 15005KT 21/15 A2987 RMK A01 T02090147  RH  068%=      5-min Rain = 0
KPD1 200621Z 15005KT 21/15 A2987 RMK A01 T02080147  RH  068%=      5-min Rain = 0
KPD1 200622Z 15005KT 21/15 A2987 RMK A01 T02080147  RH  068%=      5-min Rain = 0
KPD1 200623Z 15005KT 21/15 A2987 RMK A01 T02080147  RH  068%=      5-min Rain = 0
KPD1 200624Z 15006KT 21/15 A2987 RMK A01 T02070147  RH  068%=      5-min Rain = 0
KPD1 200625Z 15006KT 21/15 A2987 RMK A01 T02080147  RH  068%=      5-min Rain = 0
KPD1 200626Z 16006KT 21/15 A2987 RMK A01 T02080147  RH  068%=      5-min Rain = 0
KPD1 200627Z 15005KT 21/15 A2987 RMK A01 T02090147  RH  068%=      5-min Rain = 0
KPD1 200628Z 16006KT 21/15 A2987 RMK A01 T02090148  RH  068%=      5-min Rain = 0
KPD1 200629Z 16005KT 21/15 A2987 RMK A01 T02090148  RH  068%=      5-min Rain = 0
KPD1 200630Z 16006KT 21/15 A2987 RMK A01 T02090148  RH  068%=      5-min Rain = 0
KPD1 200631Z 16006KT 21/15 A2987 RMK A01 T02100149  RH  068%=      5-min Rain = 0
KPD1 200632Z 16005KT 21/15 A2987 RMK A01 T02100149  RH  068%=      5-min Rain = 0
KPD1 200633Z 16006KT 21/15 A2987 RMK A01 T02100149  RH  068%=      5-min Rain = 0
KPD1 200634Z 15006KT 21/15 A2987 RMK A01 T02100150  RH  069%=      5-min Rain = 0
KPD1 200635Z 16005KT 21/15 A2987 RMK A01 T02100150  RH  069%=      5-min Rain = 0
KPD1 200636Z 16005KT 21/15 A2987 RMK A01 T02100151  RH  069%=      5-min Rain = 0
KPD1 200637Z 16005KT 21/15 A2987 RMK A01 T02110151  RH  069%=      5-min Rain = 0
KPD1 200638Z 15005KT 21/15 A2987 RMK A01 T02110152  RH  069%=      5-min Rain = 0
KPD1 200639Z 15005KT 21/15 A2987 RMK A01 T02110151  RH  069%=      5-min Rain = 0
KPD1 200640Z 15005KT 21/15 A2987 RMK A01 T02110151  RH  068%=      5-min Rain = 0
KPD1 200641Z 15005KT 21/15 A2987 RMK A01 T02110151  RH  069%=      5-min Rain = 0
KPD1 200642Z 15005KT 21/15 A2987 RMK A01 T02110152  RH  069%=      5-min Rain = 0
KPD1 200643Z 15005KT 21/15 A2987 RMK A01 T02110152  RH  069%=      5-min Rain = 0
KPD1 200644Z 16005KT 21/15 A2987 RMK A01 T02100152  RH  069%=      5-min Rain = 0
KPD1 200645Z 15006KT 21/15 A2987 RMK A01 T02100152  RH  069%=      5-min Rain = 0
KPD1 200646Z 16006KT 21/15 A2987 RMK A01 T02100152  RH  070%=      5-min Rain = 0
KPD1 200647Z 15006KT 21/15 A2987 RMK A01 T02100153  RH  070%=      5-min Rain = 0
KPD1 200648Z 15006KT 21/15 A2987 RMK A01 T02110153  RH  070%=      5-min Rain = 0
KPD1 200649Z 16005KT 21/15 A2987 RMK A01 T02120154  RH  069%=      5-min Rain = 0
KPD1 200650Z 16005KT 21/15 A2987 RMK A01 T02120153  RH  069%=      5-min Rain = 0
KPD1 200651Z 16004KT 21/15 A2987 RMK A01 T02120154  RH  069%=      5-min Rain = 0
KPD1 200652Z 16005KT 21/15 A2987 RMK A01 T02120154  RH  069%=      5-min Rain = 0
KPD1 200653Z 15007KT 21/16 A2987 RMK A01 T02120155  RH  070%=      5-min Rain = 0
KPD1 200654Z 17005KT 21/16 A2987 RMK A01 T02120155  RH  070%=      5-min Rain = 0
KPD1 200655Z 16005KT 21/16 A2987 RMK A01 T02120155  RH  070%=      5-min Rain = 0
KPD1 200656Z 17005KT 21/16 A2987 RMK A01 T02120155  RH  070%=      5-min Rain = 0
KPD1 200657Z 17005KT 21/16 A2987 RMK A01 T02120155  RH  070%=      5-min Rain = 0
KPD1 200658Z 17004KT 21/16 A2987 RMK A01 T02110155  RH  070%=      5-min Rain = 0
KPD1 200659Z 17004KT 21/16 A2987 RMK A01 T02120156  RH  070%=      5-min Rain = 0
KPD1 200700Z 17006KT 21/16 A2987 RMK A01 T02110156  RH  071%=      5-min Rain = 0
KPD1 200701Z 17005KT 21/16 A2987 RMK A01 T02110156  RH  071%=      5-min Rain = 0
KPD1 200702Z 16006KT 21/16 A2987 RMK A01 T02110156  RH  071%=      5-min Rain = 0
KPD1 200703Z 16006KT 21/16 A2987 RMK A01 T02120157  RH  071%=      5-min Rain = 0
KPD1 200704Z 16006KT 21/16 A2987 RMK A01 T02120157  RH  071%=      5-min Rain = 0
KPD1 200705Z 16007KT 21/16 A2987 RMK A01 T02130158  RH  071%=      5-min Rain = 0
KPD1 200706Z 16007KT 21/16 A2987 RMK A01 T02120158  RH  071%=      5-min Rain = 0
KPD1 200707Z 17007KT 21/16 A2987 RMK A01 T02130158  RH  071%=      5-min Rain = 0
KPD1 200708Z 16006KT 21/16 A2987 RMK A01 T02130159  RH  071%=      5-min Rain = 0
KPD1 200709Z 17006KT 21/16 A2986 RMK A01 T02130159  RH  071%=      5-min Rain = 0
KPD1 200710Z 17006KT 21/16 A2987 RMK A01 T02130159  RH  071%=      5-min Rain = 0
KPD1 200711Z 17007KT 21/16 A2986 RMK A01 T02130160  RH  072%=      5-min Rain = 0
KPD1 200712Z 17007KT 21/16 A2987 RMK A01 T02130160  RH  072%=      5-min Rain = 0
KPD1 200713Z 17006KT 21/16 A2986 RMK A01 T02130160  RH  072%=      5-min Rain = 0
KPD1 200714Z 17006KT 21/16 A2986 RMK A01 T02120159  RH  072%=      5-min Rain = 0
KPD1 200715Z 17006KT 21/16 A2986 RMK A01 T02130160  RH  072%=      5-min Rain = 0
KPD1 200716Z 17006KT 21/16 A2986 RMK A01 T02110159  RH  072%=      5-min Rain = 0
KPD1 200717Z 17006KT 21/16 A2987 RMK A01 T02110160  RH  072%=      5-min Rain = 0
KPD1 200718Z 17007KT 21/16 A2987 RMK A01 T02110161  RH  073%=      5-min Rain = 0
KPD1 200719Z 17006KT 21/16 A2987 RMK A01 T02110161  RH  073%=      5-min Rain = 0
KPD1 200720Z 18006KT 21/16 A2987 RMK A01 T02110161  RH  073%=      5-min Rain = 0
KPD1 200721Z 18006KT 21/16 A2987 RMK A01 T02110161  RH  073%=      5-min Rain = 0
KPD1 200722Z 18006KT 21/16 A2987 RMK A01 T02110161  RH  073%=      5-min Rain = 0
KPD1 200723Z 18005KT 21/16 A2987 RMK A01 T02110161  RH  073%=      5-min Rain = 0
KPD1 200724Z 18005KT 21/16 A2987 RMK A01 T02100161  RH  073%=      5-min Rain = 0
KPD1 200725Z 18005KT 21/16 A2987 RMK A01 T02100161  RH  074%=      5-min Rain = 0
KPD1 200726Z 18005KT 21/16 A2987 RMK A01 T02090161  RH  074%=      5-min Rain = 0
KPD1 200727Z 18005KT 21/16 A2987 RMK A01 T02080161  RH  074%=      5-min Rain = 0
KPD1 200728Z 19006KT 21/16 A2987 RMK A01 T02070161  RH  075%=      5-min Rain = 0
KPD1 200729Z 19006KT 21/16 A2987 RMK A01 T02070161  RH  075%=      5-min Rain = 0
KPD1 200730Z 19006KT 21/16 A2987 RMK A01 T02060162  RH  076%=      5-min Rain = 0
KPD1 200731Z 18006KT 20/16 A2987 RMK A01 T02040161  RH  076%=      5-min Rain = 0
KPD1 200732Z 18006KT 20/16 A2986 RMK A01 T02030162  RH  077%=      5-min Rain = 0
KPD1 200733Z 17005KT 20/16 A2986 RMK A01 T02030162  RH  077%=      5-min Rain = 0
KPD1 200734Z 18006KT 20/16 A2986 RMK A01 T02030163  RH  078%=      5-min Rain = 0
KPD1 200735Z 18006KT 20/16 A2986 RMK A01 T02020162  RH  078%=      5-min Rain = 0
KPD1 200736Z 18006KT 20/16 A2986 RMK A01 T02020162  RH  078%=      5-min Rain = 0
KPD1 200737Z 19006KT 20/16 A2986 RMK A01 T02010163  RH  078%=      5-min Rain = 0
KPD1 200738Z 18006KT 20/16 A2986 RMK A01 T02010163  RH  079%=      5-min Rain = 0
KPD1 200739Z 18007KT 20/16 A2986 RMK A01 T02010164  RH  079%=      5-min Rain = 0
KPD1 200740Z 18006KT 20/16 A2986 RMK A01 T02010164  RH  079%=      5-min Rain = 0
KPD1 200741Z 18006KT 20/16 A2986 RMK A01 T02010164  RH  079%=      5-min Rain = 0
KPD1 200742Z 18006KT 20/16 A2986 RMK A01 T02020164  RH  079%=      5-min Rain = 0
KPD1 200743Z 18006KT 20/16 A2986 RMK A01 T02020164  RH  079%=      5-min Rain = 0
KPD1 200744Z 18006KT 20/17 A2986 RMK A01 T02020165  RH  079%=      5-min Rain = 0
KPD1 200745Z 18006KT 20/17 A2986 RMK A01 T02030165  RH  079%=      5-min Rain = 0
KPD1 200746Z 18006KT 20/17 A2986 RMK A01 T02030166  RH  079%=      5-min Rain = 0
KPD1 200747Z 18006KT 20/17 A2986 RMK A01 T02020165  RH  079%=      5-min Rain = 0
KPD1 200748Z 18005KT 20/17 A2986 RMK A01 T02030166  RH  079%=      5-min Rain = 0
KPD1 200749Z 18006KT 20/17 A2987 RMK A01 T02030166  RH  079%=      5-min Rain = 0
KPD1 200750Z 18006KT 20/17 A2986 RMK A01 T02030166  RH  079%=      5-min Rain = 0
KPD1 200751Z 18006KT 20/17 A2986 RMK A01 T02040166  RH  079%=      5-min Rain = 0
KPD1 200752Z 17005KT 20/17 A2987 RMK A01 T02030166  RH  079%=      5-min Rain = 0
KPD1 200753Z 18005KT 20/17 A2987 RMK A01 T02040166  RH  079%=      5-min Rain = 0
KPD1 200754Z 18007KT 20/17 A2987 RMK A01 T02040166  RH  079%=      5-min Rain = 0
KPD1 200755Z 18006KT 20/17 A2987 RMK A01 T02040167  RH  079%=      5-min Rain = 0
KPD1 200756Z 18006KT 20/17 A2987 RMK A01 T02030166  RH  079%=      5-min Rain = 0
KPD1 200757Z 17006KT 20/17 A2986 RMK A01 T02030166  RH  079%=      5-min Rain = 0
KPD1 200758Z 18005KT 20/17 A2986 RMK A01 T02030166  RH  079%=      5-min Rain = 0
KPD1 200759Z 18006KT 20/17 A2986 RMK A01 T02030166  RH  079%=      5-min Rain = 0
KPD1 200800Z 18006KT 20/17 A2986 RMK A01 T02030167  RH  080%=      5-min Rain = 0
KPD1 200801Z 18007KT 20/17 A2986 RMK A01 T02020167  RH  080%=      5-min Rain = 0
KPD1 200802Z 18006KT 20/17 A2986 RMK A01 T02020167  RH  080%=      5-min Rain = 0
KPD1 200803Z 18006KT 20/17 A2986 RMK A01 T02030167  RH  080%=      5-min Rain = 0
KPD1 200804Z 18007KT 20/17 A2986 RMK A01 T02030167  RH  080%=      5-min Rain = 0
KPD1 200805Z 18007KT 20/17 A2986 RMK A01 T02030167  RH  080%=      5-min Rain = 0
KPD1 200806Z 18007KT 20/17 A2986 RMK A01 T02030167  RH  080%=      5-min Rain = 0
KPD1 200807Z 18007KT 20/17 A2986 RMK A01 T02030167  RH  080%=      5-min Rain = 0
KPD1 200808Z 18006KT 20/17 A2986 RMK A01 T02030167  RH  080%=      5-min Rain = 0
KPD1 200809Z 19007KT 20/17 A2986 RMK A01 T02030167  RH  080%=      5-min Rain = 0
KPD1 200810Z 19008KT 20/17 A2986 RMK A01 T02030167  RH  080%=      5-min Rain = 0
KPD1 200811Z 18008KT 20/17 A2986 RMK A01 T02030168  RH  080%=      5-min Rain = 0
KPD1 200812Z 18008KT 20/17 A2986 RMK A01 T02020167  RH  080%=      5-min Rain = 0
KPD1 200813Z 18008KT 20/17 A2986 RMK A01 T02030167  RH  080%=      5-min Rain = 0
KPD1 200814Z 18007KT 20/17 A2986 RMK A01 T02030167  RH  080%=      5-min Rain = 0
KPD1 200815Z 18007KT 20/17 A2986 RMK A01 T02030167  RH  080%=      5-min Rain = 0
KPD1 200816Z 17008KT 20/17 A2986 RMK A01 T02030167  RH  080%=      5-min Rain = 0
KPD1 200817Z 17007KT 20/17 A2987 RMK A01 T02040167  RH  079%=      5-min Rain = 0
KPD1 200818Z 17007KT 21/17 A2987 RMK A01 T02050168  RH  079%=      5-min Rain = 0
KPD1 200819Z 17008KT 20/17 A2987 RMK A01 T02040167  RH  079%=      5-min Rain = 0
KPD1 200820Z 18008KT 20/17 A2987 RMK A01 T02040167  RH  079%=      5-min Rain = 0
KPD1 200821Z 18007KT 21/17 A2987 RMK A01 T02050167  RH  079%=      5-min Rain = 0
KPD1 200822Z 17007KT 21/17 A2987 RMK A01 T02050167  RH  079%=      5-min Rain = 0
KPD1 200823Z 18007KT 21/17 A2987 RMK A01 T02050167  RH  079%=      5-min Rain = 0
KPD1 200824Z 18008KT 21/17 A2987 RMK A01 T02050167  RH  079%=      5-min Rain = 0
KPD1 200825Z 19006KT 21/17 A2986 RMK A01 T02050167  RH  079%=      5-min Rain = 0
KPD1 200826Z 18008KT 21/17 A2986 RMK A01 T02050167  RH  079%=      5-min Rain = 0
KPD1 200827Z 19007KT 21/17 A2986 RMK A01 T02050167  RH  079%=      5-min Rain = 0
KPD1 200828Z 18007KT 20/17 A2986 RMK A01 T02040167  RH  079%=      5-min Rain = 0
KPD1 200829Z 18008KT 20/17 A2986 RMK A01 T02040168  RH  079%=      5-min Rain = 0
KPD1 200830Z 18007KT 20/17 A2986 RMK A01 T02040168  RH  079%=      5-min Rain = 0
KPD1 200831Z 18007KT 20/17 A2986 RMK A01 T02040167  RH  080%=      5-min Rain = 0
KPD1 200832Z 18008KT 20/17 A2986 RMK A01 T02040168  RH  080%=      5-min Rain = 0
KPD1 200833Z 18008KT 20/17 A2986 RMK A01 T02040167  RH  080%=      5-min Rain = 0
KPD1 200834Z 18008KT 20/17 A2986 RMK A01 T02040167  RH  080%=      5-min Rain = 0
KPD1 200835Z 18008KT 20/17 A2986 RMK A01 T02040168  RH  080%=      5-min Rain = 0
KPD1 200836Z 17008KT 20/17 A2986 RMK A01 T02040167  RH  080%=      5-min Rain = 0
KPD1 200837Z 17009KT 20/17 A2986 RMK A01 T02040168  RH  079%=      5-min Rain = 0
KPD1 200838Z 18008KT 21/17 A2986 RMK A01 T02050168  RH  079%=      5-min Rain = 0
KPD1 200839Z 18008KT 21/17 A2986 RMK A01 T02050168  RH  079%=      5-min Rain = 0
KPD1 200840Z 18008KT 21/17 A2986 RMK A01 T02050169  RH  080%=      5-min Rain = 0
KPD1 200841Z 18008KT 21/17 A2986 RMK A01 T02050168  RH  080%=      5-min Rain = 0
KPD1 200842Z 18009KT 20/17 A2986 RMK A01 T02040168  RH  080%=      5-min Rain = 0
KPD1 200843Z 18008KT 21/17 A2986 RMK A01 T02050169  RH  080%=      5-min Rain = 0
KPD1 200844Z 18009KT 21/17 A2986 RMK A01 T02050169  RH  080%=      5-min Rain = 0
KPD1 200845Z 17009KT 21/17 A2986 RMK A01 T02050169  RH  080%=      5-min Rain = 0
KPD1 200846Z 18008KT 21/17 A2986 RMK A01 T02050169  RH  080%=      5-min Rain = 0
KPD1 200847Z 18008KT 21/17 A2986 RMK A01 T02050169  RH  080%=      5-min Rain = 0
KPD1 200848Z 18009KT 21/17 A2986 RMK A01 T02050170  RH  080%=      5-min Rain = 0
KPD1 200849Z 18008KT 21/17 A2986 RMK A01 T02050170  RH  080%=      5-min Rain = 0
KPD1 200850Z 18008KT 20/17 A2986 RMK A01 T02040170  RH  081%=      5-min Rain = 0
KPD1 200851Z 18009KT 20/17 A2986 RMK A01 T02040170  RH  081%=      5-min Rain = 0
KPD1 200852Z 17008KT 20/17 A2986 RMK A01 T02030170  RH  081%=      5-min Rain = 0
KPD1 200853Z 17008KT 20/17 A2986 RMK A01 T02030170  RH  081%=      5-min Rain = 0
KPD1 200854Z 17008KT 20/17 A2986 RMK A01 T02030170  RH  082%=      5-min Rain = 0
KPD1 200855Z 17007KT 20/17 A2986 RMK A01 T02030170  RH  082%=      5-min Rain = 0
KPD1 200856Z 18008KT 20/17 A2986 RMK A01 T02030171  RH  082%=      5-min Rain = 0
KPD1 200857Z 18008KT 20/17 A2986 RMK A01 T02020171  RH  082%=      5-min Rain = 0
KPD1 200858Z 17008KT 20/17 A2986 RMK A01 T02020171  RH  082%=      5-min Rain = 0
KPD1 200859Z 18008KT 20/17 A2986 RMK A01 T02020171  RH  083%=      5-min Rain = 0
KPD1 200900Z 18009KT 20/17 A2986 RMK A01 T02020172  RH  083%=      5-min Rain = 0
KPD1 200901Z 18008KT 20/17 A2986 RMK A01 T02020172  RH  083%=      5-min Rain = 0
KPD1 200902Z 18010KT 20/17 A2986 RMK A01 T02020172  RH  083%=      5-min Rain = 0
KPD1 200903Z 18010KT 20/17 A2986 RMK A01 T02010172  RH  083%=      5-min Rain = 0
KPD1 200904Z 18010KT 20/17 A2986 RMK A01 T02020172  RH  083%=      5-min Rain = 0
KPD1 200905Z 18009KT 20/17 A2986 RMK A01 T02020172  RH  083%=      5-min Rain = 0
KPD1 200906Z 17008KT 20/17 A2986 RMK A01 T02020172  RH  083%=      5-min Rain = 0
KPD1 200907Z 18008KT 20/17 A2986 RMK A01 T02020172  RH  083%=      5-min Rain = 0
KPD1 200908Z 17008KT 20/17 A2986 RMK A01 T02020173  RH  083%=      5-min Rain = 0
KPD1 200909Z 18008KT 20/17 A2986 RMK A01 T02020173  RH  083%=      5-min Rain = 0
KPD1 200910Z 18009KT 20/17 A2986 RMK A01 T02020173  RH  083%=      5-min Rain = 0
KPD1 200911Z 18009KT 20/17 A2986 RMK A01 T02020173  RH  083%=      5-min Rain = 0
KPD1 200912Z 17008KT 20/17 A2986 RMK A01 T02020173  RH  083%=      5-min Rain = 0
KPD1 200913Z 18008KT 20/17 A2986 RMK A01 T02020173  RH  083%=      5-min Rain = 0
KPD1 200914Z 18008KT 20/17 A2986 RMK A01 T02010173  RH  084%=      5-min Rain = 0
KPD1 200915Z 18008KT 20/17 A2986 RMK A01 T02010173  RH  084%=      5-min Rain = 0
KPD1 200916Z 18010KT 20/17 A2986 RMK A01 T02010173  RH  084%=      5-min Rain = 0
KPD1 200917Z 18009KT 20/17 A2986 RMK A01 T02010173  RH  084%=      5-min Rain = 0
KPD1 200918Z 18008KT 20/17 A2986 RMK A01 T02010173  RH  084%=      5-min Rain = 0
KPD1 200919Z 18009KT 20/17 A2986 RMK A01 T02020173  RH  084%=      5-min Rain = 0
KPD1 200920Z 18009KT 20/17 A2986 RMK A01 T02010173  RH  084%=      5-min Rain = 0
KPD1 200921Z 18008KT 20/17 A2986 RMK A01 T02020173  RH  084%=      5-min Rain = 0
KPD1 200922Z 18008KT 20/17 A2986 RMK A01 T02010173  RH  084%=      5-min Rain = 0
KPD1 200923Z 18008KT 20/17 A2986 RMK A01 T02010173  RH  084%=      5-min Rain = 0
KPD1 200924Z 18008KT 20/17 A2986 RMK A01 T02010173  RH  084%=      5-min Rain = 0
KPD1 200925Z 18008KT 20/17 A2986 RMK A01 T02000173  RH  084%=      5-min Rain = 0
KPD1 200926Z 17008KT 20/17 A2986 RMK A01 T02010173  RH  084%=      5-min Rain = 0
KPD1 200927Z 17009KT 20/17 A2986 RMK A01 T02000174  RH  084%=      5-min Rain = 0
KPD1 200928Z 17010KT 20/17 A2986 RMK A01 T02000174  RH  085%=      5-min Rain = 0
KPD1 200929Z 17008KT 20/17 A2986 RMK A01 T02000174  RH  084%=      5-min Rain = 0
KPD1 200930Z 17008KT 20/17 A2986 RMK A01 T02000173  RH  084%=      5-min Rain = 0
KPD1 200931Z 18008KT 20/17 A2986 RMK A01 T02000173  RH  084%=      5-min Rain = 0
KPD1 200932Z 18007KT 20/17 A2986 RMK A01 T02000173  RH  084%=      5-min Rain = 0
KPD1 200933Z 18008KT 20/17 A2986 RMK A01 T02000173  RH  084%=      5-min Rain = 0
KPD1 200934Z 18008KT 20/17 A2986 RMK A01 T02000173  RH  084%=      5-min Rain = 0
KPD1 200935Z 17008KT 20/17 A2986 RMK A01 T02000174  RH  085%=      5-min Rain = 0
KPD1 200936Z 17008KT 20/17 A2986 RMK A01 T02000173  RH  085%=      5-min Rain = 0
KPD1 200937Z 17007KT 20/17 A2986 RMK A01 T02000173  RH  084%=      5-min Rain = 0
KPD1 200938Z 17007KT 20/17 A2985 RMK A01 T02000174  RH  085%=      5-min Rain = 0
KPD1 200939Z 17008KT 20/17 A2985 RMK A01 T02000173  RH  085%=      5-min Rain = 0
KPD1 200940Z 17008KT 20/17 A2986 RMK A01 T01990173  RH  085%=      5-min Rain = 0
KPD1 200941Z 18008KT 20/17 A2986 RMK A01 T01990173  RH  085%=      5-min Rain = 0
KPD1 200942Z 18007KT 20/17 A2986 RMK A01 T01990173  RH  085%=      5-min Rain = 0
KPD1 200943Z 17007KT 20/17 A2986 RMK A01 T01980173  RH  085%=      5-min Rain = 0
KPD1 200944Z 18007KT 20/17 A2986 RMK A01 T01980173  RH  085%=      5-min Rain = 0
KPD1 200945Z 18006KT 20/17 A2986 RMK A01 T01970172  RH  086%=      5-min Rain = 0
KPD1 200946Z 18007KT 20/17 A2986 RMK A01 T01970173  RH  086%=      5-min Rain = 0
KPD1 200947Z 18008KT 20/17 A2986 RMK A01 T01970173  RH  086%=      5-min Rain = 0
KPD1 200948Z 18007KT 20/17 A2986 RMK A01 T01970173  RH  086%=      5-min Rain = 0
KPD1 200949Z 17007KT 20/17 A2986 RMK A01 T01970173  RH  086%=      5-min Rain = 0
KPD1 200950Z 18006KT 20/17 A2986 RMK A01 T01970172  RH  086%=      5-min Rain = 0
KPD1 200951Z 17007KT 20/17 A2986 RMK A01 T01970172  RH  086%=      5-min Rain = 0
KPD1 200952Z 17007KT 20/17 A2986 RMK A01 T01960172  RH  086%=      5-min Rain = 0
KPD1 200953Z 17008KT 20/17 A2986 RMK A01 T01970173  RH  086%=      5-min Rain = 0
KPD1 200954Z 17007KT 20/17 A2986 RMK A01 T01970173  RH  086%=      5-min Rain = 0
KPD1 200955Z 17007KT 20/17 A2986 RMK A01 T01970173  RH  086%=      5-min Rain = 0
KPD1 200956Z 17007KT 20/17 A2986 RMK A01 T01980173  RH  086%=      5-min Rain = 0
KPD1 200957Z 17007KT 20/17 A2986 RMK A01 T01980173  RH  085%=      5-min Rain = 0
KPD1 200958Z 18006KT 20/17 A2986 RMK A01 T01990173  RH  085%=      5-min Rain = 0
KPD1 200959Z 17007KT 20/17 A2986 RMK A01 T01990173  RH  085%=      5-min Rain = 0
KPD1 201000Z 17006KT 20/17 A2986 RMK A01 T01990172  RH  085%=      5-min Rain = 0
KPD1 201001Z 17007KT 20/17 A2986 RMK A01 T01990173  RH  085%=      5-min Rain = 0
KPD1 201002Z 17007KT 20/17 A2985 RMK A01 T01990173  RH  085%=      5-min Rain = 0
KPD1 201003Z 17006KT 20/17 A2985 RMK A01 T02000173  RH  085%=      5-min Rain = 0
KPD1 201004Z 17007KT 20/17 A2985 RMK A01 T01990173  RH  085%=      5-min Rain = 0
KPD1 201005Z 17006KT 20/17 A2985 RMK A01 T01990173  RH  085%=      5-min Rain = 0
KPD1 201006Z 17006KT 20/17 A2985 RMK A01 T01990173  RH  085%=      5-min Rain = 0
KPD1 201007Z 17006KT 20/17 A2985 RMK A01 T02000173  RH  084%=      5-min Rain = 0
KPD1 201008Z 16008KT 20/17 A2985 RMK A01 T02000173  RH  084%=      5-min Rain = 0
KPD1 201009Z 17006KT 20/17 A2985 RMK A01 T02000173  RH  084%=      5-min Rain = 0
KPD1 201010Z 17005KT 20/17 A2985 RMK A01 T02010173  RH  084%=      5-min Rain = 0
KPD1 201011Z 17006KT 20/17 A2985 RMK A01 T02010173  RH  084%=      5-min Rain = 0
KPD1 201012Z 17006KT 20/17 A2986 RMK A01 T02010173  RH  084%=      5-min Rain = 0
KPD1 201013Z 18005KT 20/17 A2986 RMK A01 T02010173  RH  084%=      5-min Rain = 0
KPD1 201014Z 17005KT 20/17 A2986 RMK A01 T02000173  RH  084%=      5-min Rain = 0
KPD1 201015Z 18006KT 20/17 A2986 RMK A01 T02000172  RH  084%=      5-min Rain = 0
KPD1 201016Z 18005KT 20/17 A2986 RMK A01 T01990172  RH  085%=      5-min Rain = 0
KPD1 201017Z 18006KT 20/17 A2986 RMK A01 T01990172  RH  085%=      5-min Rain = 0
KPD1 201018Z 17006KT 20/17 A2986 RMK A01 T01980172  RH  085%=      5-min Rain = 0
KPD1 201019Z 18005KT 20/17 A2986 RMK A01 T01980172  RH  085%=      5-min Rain = 0
KPD1 201020Z 18005KT 20/17 A2986 RMK A01 T01970172  RH  085%=      5-min Rain = 0
KPD1 201021Z 18005KT 20/17 A2986 RMK A01 T01970172  RH  086%=      5-min Rain = 0
KPD1 201022Z 18005KT 20/17 A2986 RMK A01 T01960172  RH  086%=      5-min Rain = 0
KPD1 201023Z 18005KT 20/17 A2986 RMK A01 T01960172  RH  086%=      5-min Rain = 0
KPD1 201024Z 18005KT 20/17 A2986 RMK A01 T01960172  RH  086%=      5-min Rain = 0
KPD1 201025Z 18005KT 20/17 A2986 RMK A01 T01960172  RH  086%=      5-min Rain = 0
KPD1 201026Z 18006KT 20/17 A2986 RMK A01 T01960172  RH  086%=      5-min Rain = 0
KPD1 201027Z 17006KT 20/17 A2986 RMK A01 T01950172  RH  086%=      5-min Rain = 0
KPD1 201028Z 17006KT 20/17 A2986 RMK A01 T01950172  RH  087%=      5-min Rain = 0
KPD1 201029Z 18006KT 20/17 A2986 RMK A01 T01950172  RH  087%=      5-min Rain = 0
KPD1 201030Z 18006KT 20/17 A2986 RMK A01 T01960173  RH  086%=      5-min Rain = 0
KPD1 201031Z 17005KT 20/17 A2986 RMK A01 T01960173  RH  086%=      5-min Rain = 0
KPD1 201032Z 18004KT 20/17 A2986 RMK A01 T01970173  RH  086%=      5-min Rain = 0
KPD1 201033Z 18004KT 20/17 A2986 RMK A01 T01970173  RH  086%=      5-min Rain = 0
KPD1 201034Z 18005KT 20/17 A2986 RMK A01 T01960173  RH  086%=      5-min Rain = 0
KPD1 201035Z 17005KT 20/17 A2986 RMK A01 T01950172  RH  086%=      5-min Rain = 0
KPD1 201036Z 18005KT 20/17 A2986 RMK A01 T01950172  RH  086%=      5-min Rain = 0
KPD1 201037Z 18005KT 20/17 A2986 RMK A01 T01950172  RH  086%=      5-min Rain = 0
KPD1 201038Z 17007KT 20/17 A2986 RMK A01 T01950172  RH  087%=      5-min Rain = 0
KPD1 201039Z 18006KT 20/17 A2986 RMK A01 T01950172  RH  087%=      5-min Rain = 0
KPD1 201040Z 18005KT 20/17 A2986 RMK A01 T01950172  RH  087%=      5-min Rain = 0
KPD1 201041Z 18006KT 20/17 A2986 RMK A01 T01950172  RH  087%=      5-min Rain = 0
KPD1 201042Z 18005KT 20/17 A2986 RMK A01 T01950172  RH  087%=      5-min Rain = 0
KPD1 201043Z 18007KT 20/17 A2986 RMK A01 T01950172  RH  087%=      5-min Rain = 0
KPD1 201044Z 19007KT 20/17 A2986 RMK A01 T01950173  RH  087%=      5-min Rain = 0
KPD1 201045Z 18006KT 20/17 A2986 RMK A01 T01950173  RH  087%=      5-min Rain = 0
KPD1 201046Z 18005KT 20/17 A2986 RMK A01 T01960173  RH  087%=      5-min Rain = 0
KPD1 201047Z 17006KT 20/17 A2986 RMK A01 T01960173  RH  087%=      5-min Rain = 0
KPD1 201048Z 18006KT 20/17 A2986 RMK A01 T01960173  RH  086%=      5-min Rain = 0
KPD1 201049Z 18006KT 20/17 A2986 RMK A01 T01960173  RH  087%=      5-min Rain = 0
KPD1 201050Z 18005KT 20/17 A2986 RMK A01 T01960173  RH  087%=      5-min Rain = 0
KPD1 201051Z 18005KT 20/17 A2986 RMK A01 T01960173  RH  087%=      5-min Rain = 0
KPD1 201052Z 17005KT 20/17 A2986 RMK A01 T01950173  RH  087%=      5-min Rain = 0
KPD1 201053Z 18006KT 20/17 A2986 RMK A01 T01950173  RH  087%=      5-min Rain = 0
KPD1 201054Z 18005KT 20/17 A2986 RMK A01 T01950173  RH  087%=      5-min Rain = 0
KPD1 201055Z 17005KT 20/17 A2986 RMK A01 T01950173  RH  087%=      5-min Rain = 0
KPD1 201056Z 18006KT 20/17 A2986 RMK A01 T01950173  RH  087%=      5-min Rain = 0
KPD1 201057Z 17005KT 20/17 A2986 RMK A01 T01950173  RH  087%=      5-min Rain = 0
KPD1 201058Z 17006KT 20/17 A2986 RMK A01 T01950173  RH  087%=      5-min Rain = 0
KPD1 201059Z 18006KT 20/17 A2986 RMK A01 T01960174  RH  087%=      5-min Rain = 0
KPD1 201100Z 17006KT 20/17 A2986 RMK A01 T01950173  RH  087%=      5-min Rain = 0
KPD1 201101Z 18005KT 20/17 A2986 RMK A01 T01960173  RH  087%=      5-min Rain = 0
KPD1 201102Z 18005KT 20/17 A2986 RMK A01 T01960173  RH  087%=      5-min Rain = 0
KPD1 201103Z 18006KT 20/17 A2986 RMK A01 T01950173  RH  087%=      5-min Rain = 0
KPD1 201104Z 18005KT 20/17 A2986 RMK A01 T01960173  RH  087%=      5-min Rain = 0
KPD1 201105Z 18005KT 20/17 A2986 RMK A01 T01950173  RH  087%=      5-min Rain = 0
KPD1 201106Z 18005KT 20/17 A2986 RMK A01 T01950173  RH  087%=      5-min Rain = 0
KPD1 201107Z 19006KT 20/17 A2986 RMK A01 T01950173  RH  087%=      5-min Rain = 0
KPD1 201108Z 18005KT 20/17 A2986 RMK A01 T01950173  RH  087%=      5-min Rain = 0
KPD1 201109Z 18006KT 19/17 A2986 RMK A01 T01940173  RH  087%=      5-min Rain = 0
KPD1 201110Z 17005KT 19/17 A2985 RMK A01 T01940173  RH  088%=      5-min Rain = 0
KPD1 201111Z 18005KT 19/17 A2985 RMK A01 T01940173  RH  088%=      5-min Rain = 0
KPD1 201112Z 17006KT 19/17 A2985 RMK A01 T01940173  RH  088%=      5-min Rain = 0
KPD1 201113Z 17006KT 19/17 A2985 RMK A01 T01940173  RH  088%=      5-min Rain = 0
KPD1 201114Z 17005KT 19/17 A2985 RMK A01 T01940173  RH  087%=      5-min Rain = 0
KPD1 201115Z 16005KT 19/17 A2985 RMK A01 T01940173  RH  087%=      5-min Rain = 0
KPD1 201116Z 18005KT 19/17 A2985 RMK A01 T01940173  RH  088%=      5-min Rain = 0
KPD1 201117Z 17006KT 19/17 A2985 RMK A01 T01940173  RH  088%=      5-min Rain = 0
KPD1 201118Z 17006KT 19/17 A2985 RMK A01 T01930173  RH  088%=      5-min Rain = 0
KPD1 201119Z 17006KT 19/17 A2985 RMK A01 T01940173  RH  088%=      5-min Rain = 0
KPD1 201120Z 18005KT 19/17 A2986 RMK A01 T01930173  RH  088%=      5-min Rain = 0
KPD1 201121Z 18005KT 19/17 A2986 RMK A01 T01930172  RH  088%=      5-min Rain = 0
KPD1 201122Z 18006KT 19/17 A2986 RMK A01 T01930173  RH  088%=      5-min Rain = 0
KPD1 201123Z 18006KT 19/17 A2986 RMK A01 T01930173  RH  088%=      5-min Rain = 0
KPD1 201124Z 18005KT 19/17 A2986 RMK A01 T01920173  RH  088%=      5-min Rain = 0
KPD1 201125Z 19005KT 19/17 A2986 RMK A01 T01920173  RH  088%=      5-min Rain = 0
KPD1 201126Z 19005KT 19/17 A2986 RMK A01 T01920172  RH  088%=      5-min Rain = 0
KPD1 201127Z 18005KT 19/17 A2986 RMK A01 T01920173  RH  088%=      5-min Rain = 0
KPD1 201128Z 18005KT 19/17 A2986 RMK A01 T01910172  RH  089%=      5-min Rain = 0
KPD1 201129Z 18005KT 19/17 A2986 RMK A01 T01910172  RH  089%=      5-min Rain = 0
KPD1 201130Z 18005KT 19/17 A2986 RMK A01 T01910172  RH  089%=      5-min Rain = 0
KPD1 201131Z 18005KT 19/17 A2986 RMK A01 T01910172  RH  089%=      5-min Rain = 0
KPD1 201132Z 18005KT 19/17 A2986 RMK A01 T01900172  RH  089%=      5-min Rain = 0
KPD1 201133Z 18005KT 19/17 A2986 RMK A01 T01900171  RH  089%=      5-min Rain = 0
KPD1 201134Z 18005KT 19/17 A2986 RMK A01 T01900172  RH  089%=      5-min Rain = 0
KPD1 201135Z 18004KT 19/17 A2986 RMK A01 T01900172  RH  090%=      5-min Rain = 0
KPD1 201136Z 18005KT 19/17 A2986 RMK A01 T01900172  RH  090%=      5-min Rain = 0
KPD1 201137Z 18005KT 19/17 A2986 RMK A01 T01890172  RH  090%=      5-min Rain = 0
KPD1 201138Z 18005KT 19/17 A2986 RMK A01 T01890172  RH  090%=      5-min Rain = 0
KPD1 201139Z 18005KT 19/17 A2986 RMK A01 T01890172  RH  090%=      5-min Rain = 0
KPD1 201140Z 18005KT 19/17 A2986 RMK A01 T01890172  RH  090%=      5-min Rain = 0
KPD1 201141Z 17006KT 19/17 A2986 RMK A01 T01900173  RH  090%=      5-min Rain = 0
KPD1 201142Z 17005KT 19/17 A2986 RMK A01 T01890172  RH  090%=      5-min Rain = 0
KPD1 201143Z 17005KT 19/17 A2986 RMK A01 T01890172  RH  090%=      5-min Rain = 0
KPD1 201144Z 17005KT 19/17 A2986 RMK A01 T01890172  RH  090%=      5-min Rain = 0
KPD1 201145Z 17004KT 19/17 A2986 RMK A01 T01890172  RH  090%=      5-min Rain = 0
KPD1 201146Z 16005KT 19/17 A2986 RMK A01 T01900172  RH  090%=      5-min Rain = 0
KPD1 201147Z 17005KT 19/17 A2986 RMK A01 T01890172  RH  090%=      5-min Rain = 0
KPD1 201148Z 16005KT 19/17 A2986 RMK A01 T01890172  RH  090%=      5-min Rain = 0
KPD1 201149Z 16006KT 19/17 A2986 RMK A01 T01900172  RH  090%=      5-min Rain = 0
KPD1 201150Z 17005KT 19/17 A2986 RMK A01 T01900173  RH  090%=      5-min Rain = 0
KPD1 201151Z 17005KT 19/17 A2986 RMK A01 T01900172  RH  089%=      5-min Rain = 0
KPD1 201152Z 17004KT 19/17 A2986 RMK A01 T01900172  RH  089%=      5-min Rain = 0
KPD1 201153Z 18004KT 19/17 A2986 RMK A01 T01900172  RH  089%=      5-min Rain = 0
KPD1 201154Z 18004KT 19/17 A2986 RMK A01 T01900173  RH  089%=      5-min Rain = 0
KPD1 201155Z 18004KT 19/17 A2986 RMK A01 T01900172  RH  089%=      5-min Rain = 0
KPD1 201156Z 18005KT 19/17 A2986 RMK A01 T01890172  RH  090%=      5-min Rain = 0
KPD1 201157Z 18005KT 19/17 A2986 RMK A01 T01890172  RH  090%=      5-min Rain = 0
KPD1 201158Z 18005KT 19/17 A2986 RMK A01 T01890172  RH  090%=      5-min Rain = 0
KPD1 201159Z 17005KT 19/17 A2986 RMK A01 T01890172  RH  090%=      5-min Rain = 0
KPD1 201200Z 17005KT 19/17 A2986 RMK A01 T01900173  RH  090%=      5-min Rain = 0
KPD1 201201Z 17005KT 19/17 A2986 RMK A01 T01890173  RH  090%=      5-min Rain = 0
KPD1 201202Z 18005KT 19/17 A2986 RMK A01 T01900173  RH  090%=      5-min Rain = 0
KPD1 201203Z 17005KT 19/17 A2986 RMK A01 T01910173  RH  089%=      5-min Rain = 0
KPD1 201204Z 17005KT 19/17 A2986 RMK A01 T01900172  RH  089%=      5-min Rain = 0
KPD1 201205Z 18005KT 19/17 A2986 RMK A01 T01910172  RH  089%=      5-min Rain = 0
KPD1 201206Z 18004KT 19/17 A2986 RMK A01 T01910172  RH  089%=      5-min Rain = 0
KPD1 201207Z 18004KT 19/17 A2986 RMK A01 T01910172  RH  089%=      5-min Rain = 0
KPD1 201208Z 18004KT 19/17 A2986 RMK A01 T01910172  RH  089%=      5-min Rain = 0
KPD1 201209Z 18004KT 19/17 A2986 RMK A01 T01910173  RH  089%=      5-min Rain = 0
KPD1 201210Z 18005KT 19/17 A2986 RMK A01 T01910172  RH  089%=      5-min Rain = 0
KPD1 201211Z 18004KT 19/17 A2986 RMK A01 T01910173  RH  089%=      5-min Rain = 0
KPD1 201212Z 18004KT 19/17 A2986 RMK A01 T01910173  RH  089%=      5-min Rain = 0
KPD1 201213Z 18005KT 19/17 A2986 RMK A01 T01920173  RH  089%=      5-min Rain = 0
KPD1 201214Z 18004KT 19/17 A2986 RMK A01 T01910173  RH  089%=      5-min Rain = 0
KPD1 201215Z 18005KT 19/17 A2986 RMK A01 T01920173  RH  089%=      5-min Rain = 0
KPD1 201216Z 17004KT 19/17 A2986 RMK A01 T01920173  RH  089%=      5-min Rain = 0
KPD1 201217Z 17004KT 19/17 A2986 RMK A01 T01930173  RH  089%=      5-min Rain = 0
KPD1 201218Z 17004KT 19/17 A2986 RMK A01 T01930173  RH  088%=      5-min Rain = 0
KPD1 201219Z 17004KT 19/17 A2986 RMK A01 T01930173  RH  088%=      5-min Rain = 0
KPD1 201220Z 17004KT 19/17 A2987 RMK A01 T01930173  RH  088%=      5-min Rain = 0
KPD1 201221Z 18004KT 19/17 A2987 RMK A01 T01930173  RH  088%=      5-min Rain = 0
KPD1 201222Z 18003KT 19/17 A2987 RMK A01 T01940174  RH  088%=      5-min Rain = 0
KPD1 201223Z 18003KT 19/17 A2987 RMK A01 T01940173  RH  088%=      5-min Rain = 0
KPD1 201224Z 18004KT 20/17 A2986 RMK A01 T01950174  RH  088%=      5-min Rain = 0
KPD1 201225Z 17003KT 20/17 A2986 RMK A01 T01950174  RH  088%=      5-min Rain = 0
KPD1 201226Z 18004KT 20/17 A2986 RMK A01 T01950174  RH  087%=      5-min Rain = 0
KPD1 201227Z 18004KT 20/17 A2986 RMK A01 T01960174  RH  087%=      5-min Rain = 0
KPD1 201228Z 16003KT 20/17 A2986 RMK A01 T01960174  RH  087%=      5-min Rain = 0
KPD1 201229Z 17004KT 20/17 A2986 RMK A01 T01960174  RH  087%=      5-min Rain = 0
KPD1 201230Z 17005KT 20/17 A2986 RMK A01 T01970174  RH  087%=      5-min Rain = 0
KPD1 201231Z 16004KT 20/18 A2986 RMK A01 T01970175  RH  087%=      5-min Rain = 0
KPD1 201232Z 17004KT 20/18 A2986 RMK A01 T01980175  RH  087%=      5-min Rain = 0
KPD1 201233Z 18005KT 20/18 A2987 RMK A01 T01980175  RH  086%=      5-min Rain = 0
KPD1 201234Z 18003KT 20/18 A2987 RMK A01 T01990175  RH  086%=      5-min Rain = 0
KPD1 201235Z 18004KT 20/18 A2987 RMK A01 T02000176  RH  086%=      5-min Rain = 0
KPD1 201236Z 19002KT 20/18 A2987 RMK A01 T02010176  RH  086%=      5-min Rain = 0
KPD1 201237Z 19003KT 20/18 A2987 RMK A01 T02020177  RH  086%=      5-min Rain = 0
KPD1 201238Z 19004KT 20/18 A2987 RMK A01 T02020177  RH  085%=      5-min Rain = 0
KPD1 201239Z 19004KT 20/18 A2987 RMK A01 T02030176  RH  085%=      5-min Rain = 0
KPD1 201240Z 19004KT 20/18 A2987 RMK A01 T02040177  RH  085%=      5-min Rain = 0
KPD1 201241Z 19005KT 20/18 A2987 RMK A01 T02040177  RH  085%=      5-min Rain = 0
KPD1 201242Z 19005KT 21/18 A2986 RMK A01 T02050178  RH  084%=      5-min Rain = 0
KPD1 201243Z 19005KT 21/18 A2986 RMK A01 T02050177  RH  084%=      5-min Rain = 0
KPD1 201244Z 18004KT 21/18 A2986 RMK A01 T02060178  RH  084%=      5-min Rain = 0
KPD1 201245Z 19004KT 21/18 A2986 RMK A01 T02060178  RH  084%=      5-min Rain = 0
KPD1 201246Z 19005KT 21/18 A2987 RMK A01 T02070179  RH  084%=      5-min Rain = 0
KPD1 201247Z 19004KT 21/18 A2987 RMK A01 T02080179  RH  084%=      5-min Rain = 0
KPD1 201248Z 18004KT 21/18 A2986 RMK A01 T02080180  RH  084%=      5-min Rain = 0
KPD1 201249Z 18005KT 21/18 A2986 RMK A01 T02090180  RH  083%=      5-min Rain = 0
KPD1 201250Z 17003KT 21/18 A2986 RMK A01 T02090180  RH  083%=      5-min Rain = 0
KPD1 201251Z 18004KT 21/18 A2986 RMK A01 T02100180  RH  083%=      5-min Rain = 0
KPD1 201252Z 18004KT 21/18 A2986 RMK A01 T02100180  RH  083%=      5-min Rain = 0
KPD1 201253Z 19005KT 21/18 A2986 RMK A01 T02110180  RH  082%=      5-min Rain = 0
KPD1 201254Z 19005KT 21/18 A2986 RMK A01 T02120180  RH  082%=      5-min Rain = 0
KPD1 201255Z 18005KT 21/18 A2986 RMK A01 T02110179  RH  082%=      5-min Rain = 0
KPD1 201256Z 18005KT 21/18 A2986 RMK A01 T02110180  RH  082%=      5-min Rain = 0
KPD1 201257Z 18004KT 21/18 A2986 RMK A01 T02120181  RH  082%=      5-min Rain = 0
KPD1 201258Z 18005KT 21/18 A2986 RMK A01 T02120180  RH  082%=      5-min Rain = 0
KPD1 201259Z 18005KT 21/18 A2986 RMK A01 T02130180  RH  082%=      5-min Rain = 0
KPD1 201300Z 18004KT 21/18 A2986 RMK A01 T02130181  RH  082%=      5-min Rain = 0
KPD1 201301Z 18005KT 21/18 A2986 RMK A01 T02140181  RH  082%=      5-min Rain = 0
KPD1 201302Z 18004KT 21/18 A2986 RMK A01 T02140181  RH  081%=      5-min Rain = 0
KPD1 201303Z 18004KT 21/18 A2986 RMK A01 T02140181  RH  082%=      5-min Rain = 0
KPD1 201304Z 18004KT 22/18 A2986 RMK A01 T02150182  RH  082%=      5-min Rain = 0
KPD1 201305Z 18005KT 22/18 A2986 RMK A01 T02150182  RH  081%=      5-min Rain = 0
KPD1 201306Z 19004KT 22/18 A2986 RMK A01 T02150181  RH  081%=      5-min Rain = 0
KPD1 201307Z 17003KT 22/18 A2986 RMK A01 T02150181  RH  081%=      5-min Rain = 0
KPD1 201308Z 18004KT 22/18 A2986 RMK A01 T02150182  RH  081%=      5-min Rain = 0
KPD1 201309Z 18004KT 22/18 A2986 RMK A01 T02150181  RH  081%=      5-min Rain = 0
KPD1 201310Z 18005KT 22/18 A2986 RMK A01 T02160181  RH  081%=      5-min Rain = 0
KPD1 201311Z 19005KT 22/18 A2986 RMK A01 T02160182  RH  081%=      5-min Rain = 0
KPD1 201312Z 18004KT 22/18 A2987 RMK A01 T02160182  RH  081%=      5-min Rain = 0
KPD1 201313Z 17005KT 22/18 A2987 RMK A01 T02170182  RH  081%=      5-min Rain = 0
KPD1 201314Z 19004KT 22/18 A2987 RMK A01 T02170182  RH  081%=      5-min Rain = 0
KPD1 201315Z 19004KT 22/18 A2987 RMK A01 T02170182  RH  080%=      5-min Rain = 0
KPD1 201316Z 20004KT 22/18 A2987 RMK A01 T02170183  RH  081%=      5-min Rain = 0
KPD1 201317Z 20004KT 22/18 A2987 RMK A01 T02180183  RH  080%=      5-min Rain = 0
KPD1 201318Z 18005KT 22/18 A2987 RMK A01 T02180182  RH  080%=      5-min Rain = 0
KPD1 201319Z 18005KT 22/18 A2987 RMK A01 T02180183  RH  080%=      5-min Rain = 0
KPD1 201320Z 18006KT 22/18 A2987 RMK A01 T02180182  RH  080%=      5-min Rain = 0
KPD1 201321Z 18005KT 22/18 A2987 RMK A01 T02190182  RH  080%=      5-min Rain = 0
KPD1 201322Z 19005KT 22/18 A2986 RMK A01 T02180182  RH  080%=      5-min Rain = 0
KPD1 201323Z 18005KT 22/18 A2986 RMK A01 T02180183  RH  080%=      5-min Rain = 0
KPD1 201324Z 18006KT 22/18 A2986 RMK A01 T02180183  RH  080%=      5-min Rain = 0
KPD1 201325Z 18005KT 22/18 A2986 RMK A01 T02180182  RH  080%=      5-min Rain = 0
KPD1 201326Z 19004KT 22/18 A2986 RMK A01 T02190182  RH  080%=      5-min Rain = 0
KPD1 201327Z 19004KT 22/18 A2986 RMK A01 T02190184  RH  081%=      5-min Rain = 0
KPD1 201328Z 18002KT 22/18 A2986 RMK A01 T02190184  RH  080%=      5-min Rain = 0
KPD1 201329Z 19003KT 22/19 A2986 RMK A01 T02200185  RH  081%=      5-min Rain = 0
KPD1 201330Z 18002KT 22/19 A2986 RMK A01 T02210185  RH  080%=      5-min Rain = 0
KPD1 201331Z 17003KT 22/18 A2986 RMK A01 T02220183  RH  079%=      5-min Rain = 0
KPD1 201332Z 19003KT 22/19 A2986 RMK A01 T02220185  RH  079%=      5-min Rain = 0
KPD1 201333Z 19003KT 22/18 A2986 RMK A01 T02220184  RH  079%=      5-min Rain = 0
KPD1 201334Z 17002KT 22/19 A2986 RMK A01 T02230185  RH  079%=      5-min Rain = 0
KPD1 201335Z 17002KT 22/19 A2986 RMK A01 T02240186  RH  079%=      5-min Rain = 0
KPD1 201336Z 15000KT 22/19 A2986 RMK A01 T02240185  RH  078%=      5-min Rain = 0
KPD1 201337Z 16003KT 23/19 A2986 RMK A01 T02250185  RH  078%=      5-min Rain = 0
KPD1 201338Z 16003KT 23/19 A2986 RMK A01 T02250186  RH  078%=      5-min Rain = 0
KPD1 201339Z 17003KT 23/19 A2986 RMK A01 T02260186  RH  078%=      5-min Rain = 0
KPD1 201340Z 17004KT 23/19 A2986 RMK A01 T02270185  RH  077%=      5-min Rain = 0
KPD1 201341Z 17003KT 23/19 A2986 RMK A01 T02270185  RH  077%=      5-min Rain = 0
KPD1 201342Z 16001KT 23/18 A2986 RMK A01 T02260184  RH  077%=      5-min Rain = 0
KPD1 201343Z 22001KT 23/18 A2986 RMK A01 T02270183  RH  076%=      5-min Rain = 0
KPD1 201344Z 17002KT 23/18 A2986 RMK A01 T02270184  RH  077%=      5-min Rain = 0
KPD1 201345Z 17004KT 23/19 A2986 RMK A01 T02260185  RH  077%=      5-min Rain = 0
KPD1 201346Z 17003KT 23/19 A2986 RMK A01 T02270185  RH  077%=      5-min Rain = 0
KPD1 201347Z 16002KT 23/19 A2986 RMK A01 T02280186  RH  077%=      5-min Rain = 0
KPD1 201348Z 16004KT 23/19 A2986 RMK A01 T02290185  RH  076%=      5-min Rain = 0
KPD1 201349Z 20006KT 23/18 A2986 RMK A01 T02290183  RH  075%=      5-min Rain = 0
KPD1 201350Z 18003KT 23/18 A2986 RMK A01 T02290184  RH  076%=      5-min Rain = 0
KPD1 201351Z 16004KT 23/19 A2986 RMK A01 T02290185  RH  076%=      5-min Rain = 0
KPD1 201352Z 17005KT 23/18 A2986 RMK A01 T02290184  RH  076%=      5-min Rain = 0
KPD1 201353Z 19006KT 23/18 A2986 RMK A01 T02290184  RH  076%=      5-min Rain = 0
KPD1 201354Z 18005KT 23/19 A2986 RMK A01 T02290185  RH  076%=      5-min Rain = 0
KPD1 201355Z 18006KT 23/18 A2986 RMK A01 T02290182  RH  075%=      5-min Rain = 0
KPD1 201356Z 19007KT 23/18 A2986 RMK A01 T02290182  RH  075%=      5-min Rain = 0
KPD1 201357Z 21004KT 23/18 A2986 RMK A01 T02280182  RH  075%=      5-min Rain = 0
KPD1 201358Z 16004KT 23/18 A2986 RMK A01 T02280184  RH  076%=      5-min Rain = 0
KPD1 201359Z 17005KT 23/18 A2986 RMK A01 T02290183  RH  075%=      5-min Rain = 0
KPD1 201400Z 18006KT 23/18 A2986 RMK A01 T02300182  RH  074%=      5-min Rain = 0
KPD1 201401Z 18004KT 23/18 A2986 RMK A01 T02300184  RH  075%=      5-min Rain = 0
KPD1 201402Z 18004KT 23/19 A2986 RMK A01 T02310185  RH  075%=      5-min Rain = 0
KPD1 201403Z 18006KT 23/19 A2986 RMK A01 T02320186  RH  075%=      5-min Rain = 0
KPD1 201404Z 19005KT 23/19 A2986 RMK A01 T02330185  RH  074%=      5-min Rain = 0
KPD1 201405Z 20006KT 23/18 A2986 RMK A01 T02330184  RH  074%=      5-min Rain = 0
KPD1 201406Z 20004KT 23/18 A2986 RMK A01 T02320183  RH  074%=      5-min Rain = 0
KPD1 201407Z 19004KT 23/18 A2986 RMK A01 T02320184  RH  074%=      5-min Rain = 0
KPD1 201408Z 17002KT 23/19 A2986 RMK A01 T02330189  RH  076%=      5-min Rain = 0
KPD1 201409Z 19006KT 23/19 A2986 RMK A01 T02340186  RH  074%=      5-min Rain = 0
KPD1 201410Z 20005KT 23/19 A2986 RMK A01 T02340185  RH  074%=      5-min Rain = 0
KPD1 201411Z 20004KT 23/19 A2986 RMK A01 T02340185  RH  074%=      5-min Rain = 0
KPD1 201412Z 20005KT 24/19 A2986 RMK A01 T02350186  RH  074%=      5-min Rain = 0
KPD1 201413Z 19005KT 24/19 A2986 RMK A01 T02350185  RH  073%=      5-min Rain = 0
KPD1 201414Z 19006KT 24/18 A2986 RMK A01 T02350184  RH  073%=      5-min Rain = 0
KPD1 201415Z 19005KT 24/18 A2986 RMK A01 T02350184  RH  073%=      5-min Rain = 0
KPD1 201416Z 20005KT 24/18 A2986 RMK A01 T02350183  RH  073%=      5-min Rain = 0
KPD1 201417Z 20005KT 24/19 A2986 RMK A01 T02360185  RH  073%=      5-min Rain = 0
KPD1 201418Z 19005KT 24/18 A2986 RMK A01 T02360184  RH  073%=      5-min Rain = 0
KPD1 201419Z 19005KT 24/19 A2986 RMK A01 T02370187  RH  073%=      5-min Rain = 0
KPD1 201420Z 19003KT 24/18 A2986 RMK A01 T02370184  RH  072%=      5-min Rain = 0
KPD1 201421Z 20004KT 24/19 A2986 RMK A01 T02380186  RH  073%=      5-min Rain = 0
KPD1 201422Z 19005KT 24/19 A2986 RMK A01 T02390185  RH  072%=      5-min Rain = 0
KPD1 201423Z 18006KT 24/19 A2986 RMK A01 T02390187  RH  073%=      5-min Rain = 0
KPD1 201424Z 19005KT 24/19 A2986 RMK A01 T02390186  RH  072%=      5-min Rain = 0
KPD1 201425Z 19004KT 24/19 A2986 RMK A01 T02390188  RH  073%=      5-min Rain = 0
KPD1 201426Z 17004KT 24/19 A2986 RMK A01 T02410188  RH  072%=      5-min Rain = 0
KPD1 201427Z 20004KT 24/19 A2986 RMK A01 T02420187  RH  072%=      5-min Rain = 0
KPD1 201428Z 21004KT 24/19 A2986 RMK A01 T02420186  RH  071%=      5-min Rain = 0
KPD1 201429Z 20004KT 24/19 A2986 RMK A01 T02420189  RH  072%=      5-min Rain = 0
KPD1 201430Z 19004KT 24/19 A2986 RMK A01 T02430189  RH  072%=      5-min Rain = 0
KPD1 201431Z 19004KT 24/19 A2986 RMK A01 T02440189  RH  072%=      5-min Rain = 0
KPD1 201432Z 19002KT 24/19 A2986 RMK A01 T02440191  RH  072%=      5-min Rain = 0
KPD1 201433Z 19002KT 25/19 A2986 RMK A01 T02450189  RH  071%=      5-min Rain = 0
KPD1 201434Z 18005KT 25/19 A2986 RMK A01 T02450189  RH  071%=      5-min Rain = 0
KPD1 201435Z 18003KT 25/19 A2986 RMK A01 T02460188  RH  070%=      5-min Rain = 0
KPD1 201436Z 21004KT 25/19 A2986 RMK A01 T02460190  RH  071%=      5-min Rain = 0
KPD1 201437Z 23003KT 25/19 A2986 RMK A01 T02470187  RH  069%=      5-min Rain = 0
KPD1 201438Z 20002KT 25/19 A2986 RMK A01 T02470190  RH  071%=      5-min Rain = 0
KPD1 201439Z 20004KT 25/19 A2986 RMK A01 T02480191  RH  071%=      5-min Rain = 0
KPD1 201440Z 19002KT 25/19 A2986 RMK A01 T02490188  RH  069%=      5-min Rain = 0
KPD1 201441Z 18003KT 25/19 A2986 RMK A01 T02490187  RH  068%=      5-min Rain = 0
KPD1 201442Z 17001KT 25/19 A2986 RMK A01 T02500190  RH  069%=      5-min Rain = 0
KPD1 201443Z 18001KT 25/19 A2986 RMK A01 T02520193  RH  070%=      5-min Rain = 0
KPD1 201444Z 19003KT 25/19 A2986 RMK A01 T02530190  RH  068%=      5-min Rain = 0
KPD1 201445Z 18003KT 26/19 A2986 RMK A01 T02550190  RH  067%=      5-min Rain = 0
KPD1 201446Z 18003KT 26/19 A2986 RMK A01 T02550190  RH  067%=      5-min Rain = 0
KPD1 201447Z 18002KT 26/19 A2986 RMK A01 T02560190  RH  067%=      5-min Rain = 0
KPD1 201448Z 19004KT 26/19 A2986 RMK A01 T02570191  RH  067%=      5-min Rain = 0
KPD1 201449Z 19003KT 26/19 A2986 RMK A01 T02570190  RH  067%=      5-min Rain = 0
KPD1 201450Z 18003KT 26/20 A2986 RMK A01 T02590195  RH  068%=      5-min Rain = 0
KPD1 201451Z 18005KT 26/19 A2986 RMK A01 T02600192  RH  066%=      5-min Rain = 0
KPD1 201452Z 17003KT 26/19 A2986 RMK A01 T02590192  RH  066%=      5-min Rain = 0
KPD1 201453Z 16005KT 26/19 A2986 RMK A01 T02580192  RH  067%=      5-min Rain = 0
KPD1 201454Z 17005KT 26/19 A2986 RMK A01 T02580191  RH  066%=      5-min Rain = 0
KPD1 201455Z 17002KT 26/19 A2986 RMK A01 T02580192  RH  067%=      5-min Rain = 0
KPD1 201456Z 21001KT 26/19 A2986 RMK A01 T02580191  RH  067%=      5-min Rain = 0
KPD1 201457Z 18001KT 26/19 A2986 RMK A01 T02600192  RH  066%=      5-min Rain = 0
KPD1 201458Z 18002KT 26/19 A2986 RMK A01 T02600189  RH  065%=      5-min Rain = 0
KPD1 201459Z 22002KT 26/19 A2986 RMK A01 T02610191  RH  065%=      5-min Rain = 0
KPD1 201500Z 21003KT 26/18 A2986 RMK A01 T02610184  RH  063%=      5-min Rain = 0
KPD1 201501Z 21004KT 26/19 A2986 RMK A01 T02610185  RH  063%=      5-min Rain = 0
KPD1 201502Z 21004KT 26/19 A2986 RMK A01 T02620187  RH  063%=      5-min Rain = 0
KPD1 201503Z 22004KT 26/19 A2986 RMK A01 T02630187  RH  063%=      5-min Rain = 0
KPD1 201504Z 22002KT 26/19 A2986 RMK A01 T02640189  RH  063%=      5-min Rain = 0
KPD1 201505Z 22003KT 27/19 A2986 RMK A01 T02650187  RH  062%=      5-min Rain = 0
KPD1 201506Z 21003KT 27/19 A2986 RMK A01 T02650185  RH  061%=      5-min Rain = 0
KPD1 201507Z 22002KT 27/19 A2986 RMK A01 T02650185  RH  061%=      5-min Rain = 0
KPD1 201508Z 25001KT 27/18 A2986 RMK A01 T02650182  RH  060%=      5-min Rain = 0
KPD1 201509Z 21002KT 27/18 A2986 RMK A01 T02650179  RH  059%=      5-min Rain = 0
KPD1 201510Z 22003KT 27/19 A2986 RMK A01 T02660185  RH  061%=      5-min Rain = 0
KPD1 201511Z 23002KT 27/19 A2986 RMK A01 T02680191  RH  063%=      5-min Rain = 0
KPD1 201512Z 21003KT 27/19 A2986 RMK A01 T02700193  RH  063%=      5-min Rain = 0
KPD1 201513Z 20004KT 27/19 A2986 RMK A01 T02720185  RH  059%=      5-min Rain = 0
KPD1 201514Z 22005KT 27/18 A2986 RMK A01 T02720182  RH  058%=      5-min Rain = 0
KPD1 201515Z 20003KT 27/18 A2986 RMK A01 T02710184  RH  059%=      5-min Rain = 0
KPD1 201516Z 19002KT 27/19 A2986 RMK A01 T02720185  RH  059%=      5-min Rain = 0
KPD1 201517Z 20002KT 27/19 A2986 RMK A01 T02730188  RH  060%=      5-min Rain = 0
KPD1 201518Z 17004KT 27/19 A2986 RMK A01 T02740194  RH  061%=      5-min Rain = 0
KPD1 201519Z 20002KT 28/19 A2986 RMK A01 T02760191  RH  060%=      5-min Rain = 0
KPD1 201520Z 20001KT 28/19 A2986 RMK A01 T02760187  RH  059%=      5-min Rain = 0
KPD1 201521Z 19003KT 28/20 A2986 RMK A01 T02760195  RH  061%=      5-min Rain = 0
KPD1 201522Z 18001KT 28/19 A2986 RMK A01 T02770190  RH  059%=      5-min Rain = 0
KPD1 201523Z 17003KT 28/19 A2986 RMK A01 T02780190  RH  059%=      5-min Rain = 0
KPD1 201524Z 17002KT 28/19 A2985 RMK A01 T02780189  RH  058%=      5-min Rain = 0
KPD1 201525Z 17002KT 28/19 A2985 RMK A01 T02780192  RH  059%=      5-min Rain = 0
KPD1 201526Z 19003KT 28/19 A2985 RMK A01 T02790189  RH  058%=      5-min Rain = 0
KPD1 201527Z 21001KT 28/19 A2985 RMK A01 T02800187  RH  057%=      5-min Rain = 0
KPD1 201528Z 19001KT 28/18 A2985 RMK A01 T02800181  RH  055%=      5-min Rain = 0
KPD1 201529Z 18002KT 28/19 A2985 RMK A01 T02820189  RH  057%=      5-min Rain = 0
KPD1 201530Z 18002KT 28/19 A2985 RMK A01 T02830190  RH  057%=      5-min Rain = 0
KPD1 201531Z 20000KT 28/19 A2985 RMK A01 T02830185  RH  055%=      5-min Rain = 0
KPD1 201532Z 19001KT 28/19 A2985 RMK A01 T02820186  RH  056%=      5-min Rain = 0
KPD1 201533Z 26001KT 28/19 A2985 RMK A01 T02810185  RH  056%=      5-min Rain = 0
KPD1 201534Z 29002KT 28/18 A2985 RMK A01 T02820181  RH  054%=      5-min Rain = 0
KPD1 201535Z 30001KT 28/18 A2985 RMK A01 T02820180  RH  054%=      5-min Rain = 0
KPD1 201536Z 31003KT 28/19 A2985 RMK A01 T02820185  RH  055%=      5-min Rain = 0
KPD1 201537Z 29002KT 28/18 A2985 RMK A01 T02830184  RH  055%=      5-min Rain = 0
KPD1 201538Z 25000KT 28/18 A2985 RMK A01 T02840178  RH  053%=      5-min Rain = 0
KPD1 201539Z 23002KT 28/18 A2985 RMK A01 T02840180  RH  053%=      5-min Rain = 0
KPD1 201540Z 23001KT 29/18 A2985 RMK A01 T02860183  RH  054%=      5-min Rain = 0
KPD1 201541Z 23000KT 29/18 A2985 RMK A01 T02860183  RH  054%=      5-min Rain = 0
KPD1 201542Z 23002KT 29/18 A2985 RMK A01 T02870178  RH  052%=      5-min Rain = 0
KPD1 201543Z 21001KT 29/18 A2985 RMK A01 T02870177  RH  051%=      5-min Rain = 0
KPD1 201544Z 21004KT 29/18 A2985 RMK A01 T02890178  RH  051%=      5-min Rain = 0
KPD1 201545Z 23003KT 29/18 A2985 RMK A01 T02910180  RH  051%=      5-min Rain = 0
KPD1 201546Z 26002KT 29/17 A2985 RMK A01 T02920174  RH  049%=      5-min Rain = 0
KPD1 201547Z 25001KT 29/18 A2985 RMK A01 T02930177  RH  050%=      5-min Rain = 0
KPD1 201548Z 24002KT 29/18 A2985 RMK A01 T02930183  RH  051%=      5-min Rain = 0
KPD1 201549Z 24003KT 30/18 A2985 RMK A01 T02950179  RH  050%=      5-min Rain = 0
KPD1 201550Z 24003KT 30/18 A2985 RMK A01 T02950178  RH  049%=      5-min Rain = 0
KPD1 201551Z 26003KT 30/18 A2985 RMK A01 T02960182  RH  050%=      5-min Rain = 0
KPD1 201552Z 26002KT 30/18 A2985 RMK A01 T02960176  RH  048%=      5-min Rain = 0
KPD1 201553Z 26004KT 30/18 A2985 RMK A01 T02970179  RH  049%=      5-min Rain = 0
KPD1 201554Z 24003KT 30/17 A2985 RMK A01 T02980171  RH  047%=      5-min Rain = 0
KPD1 201555Z 24004KT 30/17 A2985 RMK A01 T02990165  RH  045%=      5-min Rain = 0
KPD1 201556Z 22002KT 30/17 A2985 RMK A01 T02990174  RH  047%=      5-min Rain = 0
KPD1 201557Z 24003KT 30/18 A2985 RMK A01 T03010176  RH  047%=      5-min Rain = 0
KPD1 201558Z 25005KT 30/17 A2985 RMK A01 T03020172  RH  046%=      5-min Rain = 0
KPD1 201559Z 25004KT 30/17 A2985 RMK A01 T03030168  RH  044%=      5-min Rain = 0
KPD1 201600Z 24005KT 30/17 A2985 RMK A01 T03040171  RH  045%=      5-min Rain = 0
KPD1 201601Z 21005KT 30/17 A2985 RMK A01 T03040167  RH  044%=      5-min Rain = 0
KPD1 201602Z 23005KT 31/17 A2985 RMK A01 T03050168  RH  044%=      5-min Rain = 0
KPD1 201603Z 23005KT 31/16 A2985 RMK A01 T03050160  RH  041%=      5-min Rain = 0
KPD1 201604Z 24004KT 31/16 A2985 RMK A01 T03050164  RH  042%=      5-min Rain = 0
KPD1 201605Z 21003KT 31/17 A2985 RMK A01 T03050167  RH  043%=      5-min Rain = 0
KPD1 201606Z 23005KT 31/17 A2985 RMK A01 T03070170  RH  044%=      5-min Rain = 0
KPD1 201607Z 24005KT 31/17 A2985 RMK A01 T03090165  RH  042%=      5-min Rain = 0
KPD1 201608Z 27005KT 31/17 A2985 RMK A01 T03100165  RH  042%=      5-min Rain = 0
KPD1 201609Z 27005KT 31/17 A2985 RMK A01 T03110171  RH  043%=      5-min Rain = 0
KPD1 201610Z 26006KT 31/17 A2985 RMK A01 T03120167  RH  042%=      5-min Rain = 0
KPD1 201611Z 27004KT 31/16 A2985 RMK A01 T03120161  RH  040%=      5-min Rain = 0
KPD1 201612Z 23003KT 31/16 A2985 RMK A01 T03120163  RH  041%=      5-min Rain = 0
KPD1 201613Z 24003KT 31/16 A2985 RMK A01 T03110159  RH  040%=      5-min Rain = 0
KPD1 201614Z 27003KT 31/16 A2985 RMK A01 T03120163  RH  041%=      5-min Rain = 0
KPD1 201615Z 24004KT 31/16 A2985 RMK A01 T03130156  RH  039%=      5-min Rain = 0
KPD1 201616Z 25002KT 31/16 A2985 RMK A01 T03130164  RH  041%=      5-min Rain = 0
KPD1 201617Z 25004KT 32/16 A2985 RMK A01 T03150163  RH  040%=      5-min Rain = 0
KPD1 201618Z 26006KT 32/16 A2985 RMK A01 T03180164  RH  040%=      5-min Rain = 0
KPD1 201619Z 25006KT 32/15 A2985 RMK A01 T03190147  RH  035%=      5-min Rain = 0
KPD1 201620Z 25007KT 32/15 A2985 RMK A01 T03190146  RH  035%=      5-min Rain = 0
KPD1 201621Z 24007KT 32/15 A2985 RMK A01 T03190146  RH  035%=      5-min Rain = 0
KPD1 201622Z 26004KT 32/15 A2985 RMK A01 T03180151  RH  036%=      5-min Rain = 0
KPD1 201623Z 25003KT 32/16 A2985 RMK A01 T03190157  RH  038%=      5-min Rain = 0
KPD1 201624Z 27002KT 32/16 A2985 RMK A01 T03210156  RH  037%=      5-min Rain = 0
KPD1 201625Z 28003KT 32/16 A2985 RMK A01 T03230161  RH  038%=      5-min Rain = 0
KPD1 201626Z 28001KT 32/16 A2985 RMK A01 T03240155  RH  036%=      5-min Rain = 0
KPD1 201627Z 30002KT 32/15 A2985 RMK A01 T03240153  RH  036%=      5-min Rain = 0
KPD1 201628Z 28004KT 32/16 A2985 RMK A01 T03240158  RH  037%=      5-min Rain = 0
KPD1 201629Z 28004KT 32/16 A2985 RMK A01 T03240160  RH  037%=      5-min Rain = 0
KPD1 201630Z 29003KT 33/16 A2985 RMK A01 T03250160  RH  037%=      5-min Rain = 0
KPD1 201631Z 26003KT 33/16 A2985 RMK A01 T03250158  RH  037%=      5-min Rain = 0
KPD1 201632Z 23002KT 33/15 A2985 RMK A01 T03260154  RH  036%=      5-min Rain = 0
KPD1 201633Z 23003KT 33/16 A2985 RMK A01 T03250155  RH  036%=      5-min Rain = 0
KPD1 201634Z 24004KT 33/16 A2985 RMK A01 T03250164  RH  038%=      5-min Rain = 0
KPD1 201635Z 24004KT 33/16 A2985 RMK A01 T03270159  RH  037%=      5-min Rain = 0
KPD1 201641Z 25004KT 33/16 A2985 RMK A01 T03290158  RH  036%=      5-min Rain = 0
KPD1 201642Z 26005KT 33/15 A2985 RMK A01 T03310154  RH  035%=      5-min Rain = 0
KPD1 201643Z 25006KT 33/16 A2985 RMK A01 T03320156  RH  035%=      5-min Rain = 0
KPD1 201644Z 25006KT 33/15 A2985 RMK A01 T03320153  RH  034%=      5-min Rain = 0
KPD1 201645Z 24005KT 33/15 A2985 RMK A01 T03320152  RH  034%=      5-min Rain = 0
KPD1 201646Z 23009KT 33/15 A2985 RMK A01 T03320153  RH  034%=      5-min Rain = 0
KPD1 201647Z 23008KT 33/14 A2985 RMK A01 T03320143  RH  032%=      5-min Rain = 0
KPD1 201648Z 26010KT 33/15 A2985 RMK A01 T03300145  RH  033%=      5-min Rain = 0
KPD1 201649Z 25009KT 33/14 A2985 RMK A01 T03300142  RH  032%=      5-min Rain = 0
KPD1 201650Z 25008KT 33/14 A2985 RMK A01 T03310144  RH  032%=      5-min Rain = 0
KPD1 201651Z 25007KT 33/14 A2985 RMK A01 T03310144  RH  032%=      5-min Rain = 0
KPD1 201652Z 26009KT 33/15 A2985 RMK A01 T03320151  RH  034%=      5-min Rain = 0
KPD1 201653Z 28007KT 33/15 A2985 RMK A01 T03330147  RH  033%=      5-min Rain = 0
KPD1 201654Z 27006KT 33/15 A2985 RMK A01 T03340149  RH  033%=      5-min Rain = 0
KPD1 201655Z 27005KT 33/14 A2985 RMK A01 T03340143  RH  032%=      5-min Rain = 0
KPD1 201656Z 25005KT 33/15 A2985 RMK A01 T03340151  RH  033%=      5-min Rain = 0
KPD1 201657Z 26006KT 34/15 A2985 RMK A01 T03350152  RH  033%=      5-min Rain = 0
KPD1 201658Z 26008KT 34/15 A2985 RMK A01 T03360150  RH  033%=      5-min Rain = 0
KPD1 201659Z 27006KT 34/15 A2985 RMK A01 T03360146  RH  032%=      5-min Rain = 0
KPD1 201700Z 27007KT 34/15 A2985 RMK A01 T03350146  RH  032%=      5-min Rain = 0
KPD1 201701Z 25005KT 33/15 A2985 RMK A01 T03340151  RH  033%=      5-min Rain = 0
KPD1 201702Z 23005KT 34/15 A2985 RMK A01 T03360151  RH  033%=      5-min Rain = 0
KPD1 201703Z 23006KT 34/15 A2985 RMK A01 T03360146  RH  032%=      5-min Rain = 0
KPD1 201704Z 23005KT 34/15 A2985 RMK A01 T03350149  RH  033%=      5-min Rain = 0
KPD1 201705Z 22005KT 34/15 A2985 RMK A01 T03350152  RH  033%=      5-min Rain = 0
KPD1 201706Z 22006KT 34/15 A2985 RMK A01 T03350153  RH  034%=      5-min Rain = 0
KPD1 201707Z 25007KT 34/15 A2985 RMK A01 T03370149  RH  032%=      5-min Rain = 0
KPD1 201708Z 26006KT 34/15 A2985 RMK A01 T03380149  RH  032%=      5-min Rain = 0
KPD1 201709Z 25008KT 34/15 A2985 RMK A01 T03390147  RH  032%=      5-min Rain = 0
KPD1 201710Z 22004KT 34/15 A2985 RMK A01 T03410154  RH  033%=      5-min Rain = 0
KPD1 201711Z 22003KT 34/16 A2985 RMK A01 T03420161  RH  034%=      5-min Rain = 0
KPD1 201712Z 23005KT 34/15 A2985 RMK A01 T03440149  RH  031%=      5-min Rain = 0
KPD1 201713Z 23006KT 34/14 A2985 RMK A01 T03430143  RH  030%=      5-min Rain = 0
KPD1 201714Z 24006KT 34/14 A2985 RMK A01 T03420144  RH  030%=      5-min Rain = 0
KPD1 201715Z 24007KT 34/14 A2985 RMK A01 T03420143  RH  030%=      5-min Rain = 0
KPD1 201716Z 25004KT 34/14 A2985 RMK A01 T03420141  RH  030%=      5-min Rain = 0
KPD1 201717Z 24003KT 34/15 A2985 RMK A01 T03410145  RH  031%=      5-min Rain = 0
KPD1 201718Z 23003KT 34/15 A2985 RMK A01 T03410147  RH  031%=      5-min Rain = 0
KPD1 201719Z 24006KT 34/14 A2985 RMK A01 T03430139  RH  029%=      5-min Rain = 0
KPD1 201720Z 24006KT 34/13 A2985 RMK A01 T03430133  RH  028%=      5-min Rain = 0
KPD1 201721Z 24009KT 34/13 A2985 RMK A01 T03440133  RH  028%=      5-min Rain = 0
KPD1 201722Z 23007KT 34/12 A2985 RMK A01 T03440123  RH  026%=      5-min Rain = 0
KPD1 201723Z 23007KT 34/13 A2985 RMK A01 T03440129  RH  027%=      5-min Rain = 0
KPD1 201724Z 23009KT 35/12 A2985 RMK A01 T03450123  RH  026%=      5-min Rain = 0
KPD1 201725Z 23006KT 35/12 A2985 RMK A01 T03460122  RH  026%=      5-min Rain = 0
KPD1 201726Z 23009KT 35/12 A2985 RMK A01 T03470122  RH  026%=      5-min Rain = 0
KPD1 201727Z 23009KT 35/12 A2985 RMK A01 T03470119  RH  025%=      5-min Rain = 0
KPD1 201728Z 23007KT 35/13 A2985 RMK A01 T03450127  RH  027%=      5-min Rain = 0
KPD1 201729Z 22007KT 35/13 A2984 RMK A01 T03450127  RH  027%=      5-min Rain = 0
KPD1 201730Z 22007KT 35/12 A2984 RMK A01 T03460116  RH  025%=      5-min Rain = 0
KPD1 201731Z 24005KT 35/12 A2984 RMK A01 T03460123  RH  026%=      5-min Rain = 0
KPD1 201732Z 23007KT 35/13 A2984 RMK A01 T03480127  RH  026%=      5-min Rain = 0
KPD1 201733Z 22007KT 35/11 A2984 RMK A01 T03490114  RH  024%=      5-min Rain = 0
KPD1 201734Z 22006KT 35/12 A2984 RMK A01 T03490120  RH  025%=      5-min Rain = 0
KPD1 201735Z 23005KT 35/11 A2984 RMK A01 T03500113  RH  024%=      5-min Rain = 0
KPD1 201736Z 22007KT 35/12 A2984 RMK A01 T03510119  RH  025%=      5-min Rain = 0
KPD1 201737Z 22008KT 35/12 A2984 RMK A01 T03510118  RH  024%=      5-min Rain = 0
KPD1 201738Z 23006KT 35/12 A2984 RMK A01 T03500121  RH  025%=      5-min Rain = 0
KPD1 201739Z 26005KT 35/12 A2984 RMK A01 T03520120  RH  025%=      5-min Rain = 0
KPD1 201740Z 26006KT 35/12 A2984 RMK A01 T03530115  RH  024%=      5-min Rain = 0
KPD1 201741Z 24005KT 35/10 A2984 RMK A01 T03540103  RH  022%=      5-min Rain = 0
KPD1 201742Z 23008KT 35/11 A2984 RMK A01 T03530113  RH  023%=      5-min Rain = 0
KPD1 201743Z 24008KT 35/10 A2984 RMK A01 T03540104  RH  022%=      5-min Rain = 0
KPD1 201744Z 24005KT 35/10 A2984 RMK A01 T03540100  RH  021%=      5-min Rain = 0
KPD1 201745Z 24008KT 35/10 A2984 RMK A01 T03540103  RH  022%=      5-min Rain = 0
KPD1 201746Z 24007KT 35/10 A2984 RMK A01 T03530103  RH  022%=      5-min Rain = 0
KPD1 201747Z 24007KT 35/11 A2984 RMK A01 T03540107  RH  022%=      5-min Rain = 0
KPD1 201748Z 24007KT 36/10 A2984 RMK A01 T03550100  RH  021%=      5-min Rain = 0
KPD1 201749Z 23007KT 36/10 A2984 RMK A01 T03550102  RH  021%=      5-min Rain = 0
KPD1 201750Z 23005KT 36/09 A2984 RMK A01 T03550093  RH  020%=      5-min Rain = 0
KPD1 201751Z 23007KT 36/11 A2984 RMK A01 T03550106  RH  022%=      5-min Rain = 0
KPD1 201752Z 22011KT 36/10 A2984 RMK A01 T03560097  RH  021%=      5-min Rain = 0
KPD1 201753Z 23010KT 36/09 A2984 RMK A01 T03570088  RH  019%=      5-min Rain = 0
KPD1 201754Z 23007KT 36/10 A2984 RMK A01 T03560097  RH  021%=      5-min Rain = 0
KPD1 201755Z 22005KT 36/11 A2984 RMK A01 T03570105  RH  022%=      5-min Rain = 0
KPD1 201756Z 23006KT 36/11 A2984 RMK A01 T03570110  RH  022%=      5-min Rain = 0
KPD1 201757Z 26005KT 36/12 A2984 RMK A01 T03590116  RH  023%=      5-min Rain = 0
KPD1 201758Z 26008KT 36/12 A2984 RMK A01 T03610123  RH  024%=      5-min Rain = 0
KPD1 201759Z 26008KT 36/11 A2984 RMK A01 T03640106  RH  021%=      5-min Rain = 0
KPD1 201800Z 25005KT 36/11 A2984 RMK A01 T03620110  RH  022%=      5-min Rain = 0
KPD1 201801Z 28006KT 36/11 A2984 RMK A01 T03620109  RH  022%=      5-min Rain = 0
KPD1 201802Z 26006KT 36/11 A2984 RMK A01 T03630107  RH  021%=      5-min Rain = 0
KPD1 201803Z 24006KT 36/12 A2984 RMK A01 T03610115  RH  023%=      5-min Rain = 0
KPD1 201804Z 27005KT 36/12 A2984 RMK A01 T03630117  RH  023%=      5-min Rain = 0
KPD1 201805Z 22005KT 36/12 A2984 RMK A01 T03620120  RH  023%=      5-min Rain = 0
KPD1 201806Z 21006KT 36/12 A2984 RMK A01 T03640124  RH  024%=      5-min Rain = 0
KPD1 201807Z 22005KT 37/12 A2984 RMK A01 T03650121  RH  023%=      5-min Rain = 0
KPD1 201808Z 26007KT 36/12 A2984 RMK A01 T03640119  RH  023%=      5-min Rain = 0
KPD1 201809Z 22009KT 36/11 A2984 RMK A01 T03640110  RH  022%=      5-min Rain = 0
KPD1 201810Z 23008KT 37/09 A2984 RMK A01 T03650093  RH  019%=      5-min Rain = 0
KPD1 201811Z 24009KT 36/09 A2984 RMK A01 T03630085  RH  018%=      5-min Rain = 0
KPD1 201812Z 25011KT 36/09 A2984 RMK A01 T03610087  RH  019%=      5-min Rain = 0
KPD1 201813Z 27009KT 36/09 A2984 RMK A01 T03610087  RH  019%=      5-min Rain = 0
KPD1 201814Z 26007KT 36/09 A2984 RMK A01 T03610087  RH  019%=      5-min Rain = 0
KPD1 201815Z 22007KT 36/09 A2984 RMK A01 T03610091  RH  019%=      5-min Rain = 0
KPD1 201816Z 19008KT 36/11 A2984 RMK A01 T03620106  RH  021%=      5-min Rain = 0
KPD1 201817Z 22007KT 36/11 A2984 RMK A01 T03630106  RH  021%=      5-min Rain = 0
KPD1 201818Z 22008KT 36/10 A2984 RMK A01 T03640101  RH  020%=      5-min Rain = 0
KPD1 201819Z 22008KT 36/10 A2984 RMK A01 T03620104  RH  021%=      5-min Rain = 0
KPD1 201820Z 21006KT 36/11 A2983 RMK A01 T03620105  RH  021%=      5-min Rain = 0
KPD1 201821Z 22008KT 36/10 A2983 RMK A01 T03610104  RH  021%=      5-min Rain = 0
KPD1 201822Z 21008KT 36/10 A2983 RMK A01 T03620103  RH  021%=      5-min Rain = 0
KPD1 201823Z 22010KT 36/10 A2983 RMK A01 T03620098  RH  020%=      5-min Rain = 0
KPD1 201824Z 21010KT 36/09 A2983 RMK A01 T03640085  RH  018%=      5-min Rain = 0
KPD1 201825Z 21012KT 36/08 A2983 RMK A01 T03630080  RH  018%=      5-min Rain = 0
KPD1 201826Z 24008KT 36/09 A2983 RMK A01 T03620088  RH  019%=      5-min Rain = 0
KPD1 201827Z 25006KT 36/09 A2983 RMK A01 T03630094  RH  020%=      5-min Rain = 0
KPD1 201828Z 23005KT 36/11 A2983 RMK A01 T03640105  RH  021%=      5-min Rain = 0
KPD1 201829Z 23005KT 37/09 A2983 RMK A01 T03660094  RH  019%=      5-min Rain = 0
KPD1 201830Z 23005KT 37/11 A2983 RMK A01 T03670107  RH  021%=      5-min Rain = 0
KPD1 201831Z 24010G15KT 37/09 A2983 RMK A01 T03680094  RH  019%=      5-min Rain = 0
KPD1 201832Z 24012KT 37/08 A2983 RMK A01 T03670082  RH  018%=      5-min Rain = 0
KPD1 201833Z 22010G15KT 37/09 A2983 RMK A01 T03660089  RH  019%=      5-min Rain = 0
KPD1 201834Z 23010KT 37/08 A2983 RMK A01 T03660082  RH  018%=      5-min Rain = 0
KPD1 201835Z 22008KT 37/08 A2983 RMK A01 T03660076  RH  017%=      5-min Rain = 0
KPD1 201836Z 22008KT 37/08 A2983 RMK A01 T03660076  RH  017%=      5-min Rain = 0
KPD1 201837Z 22008KT 37/07 A2983 RMK A01 T03670070  RH  016%=      5-min Rain = 0
KPD1 201838Z 24007KT 37/08 A2983 RMK A01 T03660077  RH  017%=      5-min Rain = 0
KPD1 201839Z 26009KT 37/08 A2983 RMK A01 T03680077  RH  017%=      5-min Rain = 0
KPD1 201840Z 25004KT 37/07 A2983 RMK A01 T03690065  RH  016%=      5-min Rain = 0
KPD1 201841Z 25007G12KT 37/08 A2983 RMK A01 T03700079  RH  017%=      5-min Rain = 0
KPD1 201842Z 25011G16KT 37/08 A2983 RMK A01 T03720078  RH  017%=      5-min Rain = 0
KPD1 201843Z 23012G17KT 37/08 A2983 RMK A01 T03720075  RH  016%=      5-min Rain = 0
KPD1 201844Z 23015KT 37/07 A2983 RMK A01 T03710067  RH  016%=      5-min Rain = 0
KPD1 201845Z 24010KT 37/07 A2983 RMK A01 T03690070  RH  016%=      5-min Rain = 0
KPD1 201846Z 24012KT 37/07 A2983 RMK A01 T03690065  RH  015%=      5-min Rain = 0
KPD1 201847Z 24009G14KT 37/07 A2983 RMK A01 T03680065  RH  016%=      5-min Rain = 0
KPD1 201848Z 22014KT 37/07 A2983 RMK A01 T03680066  RH  016%=      5-min Rain = 0
KPD1 201849Z 23014KT 37/06 A2983 RMK A01 T03680059  RH  015%=      5-min Rain = 0
KPD1 201850Z 23009KT 37/06 A2983 RMK A01 T03680056  RH  015%=      5-min Rain = 0
KPD1 201851Z 23007KT 37/06 A2983 RMK A01 T03670064  RH  016%=      5-min Rain = 0
KPD1 201852Z 24010KT 37/06 A2983 RMK A01 T03670064  RH  016%=      5-min Rain = 0
KPD1 201853Z 22009KT 37/07 A2983 RMK A01 T03680068  RH  016%=      5-min Rain = 0
KPD1 201854Z 20010KT 37/06 A2983 RMK A01 T03680063  RH  015%=      5-min Rain = 0
KPD1 201855Z 21010KT 37/06 A2983 RMK A01 T03690060  RH  015%=      5-min Rain = 0
KPD1 201856Z 20008KT 37/06 A2983 RMK A01 T03690062  RH  015%=      5-min Rain = 0
KPD1 201857Z 21009KT 37/06 A2983 RMK A01 T03700060  RH  015%=      5-min Rain = 0
KPD1 201858Z 20007KT 37/05 A2983 RMK A01 T03700049  RH  014%=      5-min Rain = 0
KPD1 201859Z 21009KT 37/05 A2983 RMK A01 T03690053  RH  014%=      5-min Rain = 0
KPD1 201900Z 22006G11KT 37/07 A2983 RMK A01 T03690074  RH  016%=      5-min Rain = 0
KPD1 201901Z 23010KT 37/07 A2983 RMK A01 T03710074  RH  016%=      5-min Rain = 0
KPD1 201902Z 22009KT 37/07 A2983 RMK A01 T03720066  RH  015%=      5-min Rain = 0
KPD1 201903Z 21008KT 37/08 A2982 RMK A01 T03720075  RH  016%=      5-min Rain = 0
KPD1 201904Z 22008KT 37/07 A2982 RMK A01 T03730067  RH  015%=      5-min Rain = 0
KPD1 201905Z 22010KT 37/06 A2982 RMK A01 T03730058  RH  015%=      5-min Rain = 0
KPD1 201906Z 20007KT 37/06 A2982 RMK A01 T03720064  RH  015%=      5-min Rain = 0
KPD1 201907Z 21006KT 37/07 A2982 RMK A01 T03730068  RH  016%=      5-min Rain = 0
KPD1 201908Z 24007KT 37/08 A2982 RMK A01 T03730080  RH  017%=      5-min Rain = 0
KPD1 201909Z 25006KT 38/09 A2982 RMK A01 T03760087  RH  017%=      5-min Rain = 0
KPD1 201910Z 25007KT 38/08 A2982 RMK A01 T03780077  RH  016%=      5-min Rain = 0
KPD1 201911Z 23006KT 38/08 A2982 RMK A01 T03780075  RH  016%=      5-min Rain = 0
KPD1 201912Z 21009KT 38/09 A2982 RMK A01 T03790087  RH  017%=      5-min Rain = 0
KPD1 201913Z 23010KT 38/08 A2982 RMK A01 T03800079  RH  016%=      5-min Rain = 0
KPD1 201914Z 22011KT 38/07 A2982 RMK A01 T03800069  RH  015%=      5-min Rain = 0
KPD1 201915Z 23012KT 38/06 A2982 RMK A01 T03770059  RH  014%=      5-min Rain = 0
KPD1 201916Z 23011KT 37/06 A2982 RMK A01 T03740055  RH  014%=      5-min Rain = 0
KPD1 201917Z 24010KT 37/06 A2982 RMK A01 T03720056  RH  014%=      5-min Rain = 0
KPD1 201918Z 23009KT 37/06 A2982 RMK A01 T03720057  RH  014%=      5-min Rain = 0
KPD1 201919Z 25010KT 37/06 A2982 RMK A01 T03720062  RH  015%=      5-min Rain = 0
KPD1 201920Z 27009KT 37/06 A2982 RMK A01 T03720058  RH  015%=      5-min Rain = 0
KPD1 201921Z 27011G16KT 37/06 A2982 RMK A01 T03720061  RH  015%=      5-min Rain = 0
KPD1 201922Z 26014KT 37/06 A2982 RMK A01 T03710055  RH  014%=      5-min Rain = 0
KPD1 201923Z 26012KT 37/05 A2982 RMK A01 T03680049  RH  014%=      5-min Rain = 0
KPD1 201924Z 25009KT 36/05 A2982 RMK A01 T03640047  RH  014%=      5-min Rain = 0
KPD1 201925Z 26007KT 36/05 A2982 RMK A01 T03640054  RH  015%=      5-min Rain = 0
KPD1 201926Z 23007G12KT 37/06 A2982 RMK A01 T03650063  RH  016%=      5-min Rain = 0
KPD1 201927Z 22007KT 37/07 A2982 RMK A01 T03650065  RH  016%=      5-min Rain = 0
KPD1 201928Z 22009KT 36/07 A2982 RMK A01 T03630066  RH  016%=      5-min Rain = 0
KPD1 201929Z 21011KT 36/06 A2982 RMK A01 T03600058  RH  015%=      5-min Rain = 0
KPD1 201930Z 21012KT 36/05 A2982 RMK A01 T03580054  RH  015%=      5-min Rain = 0
KPD1 201931Z 22011KT 36/05 A2982 RMK A01 T03560049  RH  015%=      5-min Rain = 0
KPD1 201932Z 23009KT 36/06 A2982 RMK A01 T03560060  RH  016%=      5-min Rain = 0
KPD1 201933Z 22010KT 36/06 A2982 RMK A01 T03590058  RH  016%=      5-min Rain = 0
KPD1 201934Z 21008KT 36/06 A2982 RMK A01 T03620063  RH  016%=      5-min Rain = 0
KPD1 201935Z 22007KT 37/07 A2982 RMK A01 T03670067  RH  016%=      5-min Rain = 0
KPD1 201936Z 23006KT 37/08 A2982 RMK A01 T03720078  RH  017%=      5-min Rain = 0
KPD1 201937Z 24008KT 37/06 A2982 RMK A01 T03740063  RH  015%=      5-min Rain = 0
KPD1 201938Z 23007KT 37/07 A2981 RMK A01 T03740068  RH  015%=      5-min Rain = 0
KPD1 201939Z 22010G15KT 37/07 A2981 RMK A01 T03740067  RH  015%=      5-min Rain = 0
KPD1 201940Z 24012KT 38/06 A2981 RMK A01 T03750058  RH  014%=      5-min Rain = 0
KPD1 201941Z 25010G15KT 37/06 A2981 RMK A01 T03740055  RH  014%=      5-min Rain = 0
KPD1 201942Z 26011KT 37/06 A2981 RMK A01 T03730059  RH  015%=      5-min Rain = 0
KPD1 201943Z 26009G15KT 37/05 A2981 RMK A01 T03730047  RH  013%=      5-min Rain = 0
KPD1 201944Z 26013KT 37/05 A2981 RMK A01 T03710047  RH  014%=      5-min Rain = 0
KPD1 201945Z 26012G17KT 37/05 A2981 RMK A01 T03710046  RH  013%=      5-min Rain = 0
KPD1 201946Z 27009G14KT 37/04 A2981 RMK A01 T03690043  RH  013%=      5-min Rain = 0
KPD1 201947Z 24009KT 37/04 A2981 RMK A01 T03660043  RH  013%=      5-min Rain = 0
KPD1 201948Z 25007KT 36/04 A2981 RMK A01 T03640044  RH  014%=      5-min Rain = 0
KPD1 201949Z 25007KT 36/05 A2981 RMK A01 T03640051  RH  014%=      5-min Rain = 0
KPD1 201950Z 25006KT 37/07 A2981 RMK A01 T03690066  RH  016%=      5-min Rain = 0
KPD1 201951Z 24007KT 38/07 A2981 RMK A01 T03750068  RH  015%=      5-min Rain = 0
KPD1 201952Z 23006KT 38/07 A2981 RMK A01 T03790065  RH  015%=      5-min Rain = 0
KPD1 201953Z 24007KT 38/06 A2981 RMK A01 T03810061  RH  014%=      5-min Rain = 0
KPD1 201954Z 25008KT 38/07 A2981 RMK A01 T03820066  RH  015%=      5-min Rain = 0
KPD1 201955Z 25007KT 38/06 A2981 RMK A01 T03820061  RH  014%=      5-min Rain = 0
KPD1 201956Z 24007KT 38/06 A2981 RMK A01 T03830062  RH  014%=      5-min Rain = 0
KPD1 201957Z 25009KT 38/07 A2981 RMK A01 T03840066  RH  014%=      5-min Rain = 0
KPD1 201958Z 25012G17KT 39/06 A2981 RMK A01 T03850064  RH  014%=      5-min Rain = 0
KPD1 201959Z 25007G12KT 38/06 A2981 RMK A01 T03840057  RH  013%=      5-min Rain = 0
KPD1 202000Z 24010KT 38/06 A2981 RMK A01 T03840059  RH  014%=      5-min Rain = 0
KPD1 202001Z 23007KT 38/05 A298 RMK A01 T03840052  RH  013%=      5-min Rain = 0
KPD1 202002Z 22009G14KT 38/06 A298 RMK A01 T03820057  RH  014%=      5-min Rain = 0
KPD1 202003Z 26011KT 38/06 A2981 RMK A01 T03800064  RH  015%=      5-min Rain = 0
KPD1 202004Z 26010G16KT 38/05 A2981 RMK A01 T03790047  RH  013%=      5-min Rain = 0
KPD1 202005Z 26011KT 38/05 A2981 RMK A01 T03760048  RH  013%=      5-min Rain = 0
KPD1 202006Z 25009KT 37/05 A2981 RMK A01 T03720046  RH  013%=      5-min Rain = 0
KPD1 202007Z 26009KT 37/05 A2981 RMK A01 T03690045  RH  014%=      5-min Rain = 0
KPD1 202008Z 26009KT 37/04 A2981 RMK A01 T03650039  RH  013%=      5-min Rain = 0
KPD1 202009Z 25006KT 36/04 A298 RMK A01 T03640037  RH  013%=      5-min Rain = 0
KPD1 202010Z 23007KT 36/04 A298 RMK A01 T03640044  RH  014%=      5-min Rain = 0
KPD1 202011Z 23008KT 36/05 A2981 RMK A01 T03640047  RH  014%=      5-min Rain = 0
KPD1 202012Z 23009KT 37/05 A298 RMK A01 T03650045  RH  014%=      5-min Rain = 0
KPD1 202013Z 23009KT 37/06 A298 RMK A01 T03690055  RH  014%=      5-min Rain = 0
KPD1 202014Z 25008KT 37/06 A298 RMK A01 T03730062  RH  015%=      5-min Rain = 0
KPD1 202015Z 25012KT 38/05 A298 RMK A01 T03780052  RH  014%=      5-min Rain = 0
KPD1 202016Z 25010G15KT 38/04 A298 RMK A01 T03790044  RH  013%=      5-min Rain = 0
KPD1 202017Z 25010KT 38/05 A298 RMK A01 T03780045  RH  013%=      5-min Rain = 0
KPD1 202018Z 23008KT 38/04 A298 RMK A01 T03770044  RH  013%=      5-min Rain = 0
KPD1 202019Z 22012KT 38/06 A298 RMK A01 T03770062  RH  015%=      5-min Rain = 0
KPD1 202020Z 22010KT 38/06 A298 RMK A01 T03780055  RH  014%=      5-min Rain = 0
KPD1 202021Z 23013KT 38/06 A298 RMK A01 T03790058  RH  014%=      5-min Rain = 0
KPD1 202022Z 24009G15KT 38/05 A298 RMK A01 T03750049  RH  013%=      5-min Rain = 0
KPD1 202023Z 25010G15KT 37/06 A298 RMK A01 T03710058  RH  015%=      5-min Rain = 0
KPD1 202024Z 24010G16KT 37/05 A298 RMK A01 T03700053  RH  014%=      5-min Rain = 0
KPD1 202025Z 24011KT 37/05 A298 RMK A01 T03700050  RH  014%=      5-min Rain = 0
KPD1 202026Z 23008KT 37/05 A298 RMK A01 T03710045  RH  013%=      5-min Rain = 0
KPD1 202027Z 23009KT 37/06 A298 RMK A01 T03730062  RH  015%=      5-min Rain = 0
KPD1 202028Z 22011KT 38/07 A298 RMK A01 T03750067  RH  015%=      5-min Rain = 0
KPD1 202029Z 23009G14KT 38/05 A298 RMK A01 T03760052  RH  014%=      5-min Rain = 0
KPD1 202030Z 23008KT 38/06 A298 RMK A01 T03760056  RH  014%=      5-min Rain = 0
KPD1 202031Z 22008KT 38/06 A298 RMK A01 T03780057  RH  014%=      5-min Rain = 0
KPD1 202032Z 24007KT 38/07 A298 RMK A01 T03790069  RH  015%=      5-min Rain = 0
KPD1 202033Z 24006KT 38/07 A298 RMK A01 T03800070  RH  015%=      5-min Rain = 0
KPD1 202034Z 24006G12KT 38/07 A298 RMK A01 T03820074  RH  015%=      5-min Rain = 0
KPD1 202035Z 23007KT 38/08 A298 RMK A01 T03830075  RH  015%=      5-min Rain = 0
KPD1 202036Z 24010KT 38/07 A298 RMK A01 T03830070  RH  015%=      5-min Rain = 0
KPD1 202037Z 23010G15KT 38/06 A298 RMK A01 T03820063  RH  014%=      5-min Rain = 0
KPD1 202038Z 24013KT 38/06 A298 RMK A01 T03790058  RH  014%=      5-min Rain = 0
KPD1 202039Z 25011KT 38/05 A298 RMK A01 T03770053  RH  014%=      5-min Rain = 0
KPD1 202040Z 25008KT 37/04 A298 RMK A01 T03730043  RH  013%=      5-min Rain = 0
KPD1 202041Z 24009KT 37/05 A298 RMK A01 T03670051  RH  014%=      5-min Rain = 0
KPD1 202042Z 24007KT 36/05 A298 RMK A01 T03630053  RH  015%=      5-min Rain = 0
KPD1 202043Z 24008KT 36/05 A298 RMK A01 T03580053  RH  015%=      5-min Rain = 0
KPD1 202044Z 24007KT 36/05 A298 RMK A01 T03550049  RH  015%=      5-min Rain = 0
KPD1 202045Z 25006KT 36/06 A298 RMK A01 T03550062  RH  016%=      5-min Rain = 0
KPD1 202046Z 24005KT 36/06 A2979 RMK A01 T03550061  RH  016%=      5-min Rain = 0
KPD1 202047Z 24004KT 36/07 A2979 RMK A01 T03550068  RH  017%=      5-min Rain = 0
KPD1 202048Z 24006KT 36/07 A2979 RMK A01 T03560073  RH  018%=      5-min Rain = 0
KPD1 202049Z 24007KT 36/07 A2979 RMK A01 T03590073  RH  017%=      5-min Rain = 0
KPD1 202050Z 24006KT 36/06 A2979 RMK A01 T03630060  RH  015%=      5-min Rain = 0
KPD1 202051Z 24005KT 37/07 A2979 RMK A01 T03650073  RH  017%=      5-min Rain = 0
KPD1 202052Z 23005KT 37/08 A2979 RMK A01 T03700082  RH  017%=      5-min Rain = 0
KPD1 202053Z 24006KT 37/08 A2979 RMK A01 T03720075  RH  016%=      5-min Rain = 0
KPD1 202054Z 23006KT 37/08 A2979 RMK A01 T03730076  RH  016%=      5-min Rain = 0
KPD1 202055Z 22006KT 37/07 A2979 RMK A01 T03740066  RH  015%=      5-min Rain = 0
KPD1 202056Z 24007KT 38/07 A2979 RMK A01 T03750067  RH  015%=      5-min Rain = 0
KPD1 202057Z 25005KT 38/06 A2979 RMK A01 T03760061  RH  015%=      5-min Rain = 0
KPD1 202058Z 23003KT 38/07 A2979 RMK A01 T03760074  RH  016%=      5-min Rain = 0
KPD1 202059Z 24007KT 38/08 A2979 RMK A01 T03790077  RH  016%=      5-min Rain = 0
KPD1 202100Z 25008KT 38/07 A2979 RMK A01 T03800066  RH  015%=      5-min Rain = 0
KPD1 202101Z 24007KT 38/06 A2979 RMK A01 T03800058  RH  014%=      5-min Rain = 0
KPD1 202102Z 21006KT 38/06 A2979 RMK A01 T03790055  RH  014%=      5-min Rain = 0
KPD1 202103Z 23005G10KT 38/07 A2979 RMK A01 T03800069  RH  015%=      5-min Rain = 0
KPD1 202104Z 24007KT 38/06 A2979 RMK A01 T03810060  RH  014%=      5-min Rain = 0
KPD1 202105Z 24007KT 38/06 A2979 RMK A01 T03810060  RH  014%=      5-min Rain = 0
KPD1 202106Z 21007KT 38/07 A2978 RMK A01 T03810074  RH  015%=      5-min Rain = 0
KPD1 202107Z 23009KT 38/07 A2978 RMK A01 T03830074  RH  015%=      5-min Rain = 0
KPD1 202108Z 23011G17KT 38/06 A2978 RMK A01 T03830056  RH  014%=      5-min Rain = 0
KPD1 202109Z 25010KT 38/06 A2978 RMK A01 T03810061  RH  014%=      5-min Rain = 0
KPD1 202110Z 26011KT 38/06 A2978 RMK A01 T03810062  RH  014%=      5-min Rain = 0
KPD1 202111Z 24011KT 38/06 A2978 RMK A01 T03800057  RH  014%=      5-min Rain = 0
KPD1 202112Z 24008KT 38/05 A2978 RMK A01 T03750050  RH  014%=      5-min Rain = 0
KPD1 202113Z 25009KT 37/05 A2978 RMK A01 T03710054  RH  014%=      5-min Rain = 0
KPD1 202114Z 24008KT 37/05 A2978 RMK A01 T03690051  RH  014%=      5-min Rain = 0
KPD1 202115Z 22007KT 37/06 A2978 RMK A01 T03680055  RH  015%=      5-min Rain = 0
KPD1 202116Z 22009G15KT 37/06 A2978 RMK A01 T03670057  RH  015%=      5-min Rain = 0
KPD1 202117Z 23012KT 37/05 A2978 RMK A01 T03660050  RH  014%=      5-min Rain = 0
KPD1 202118Z 23011KT 37/06 A2978 RMK A01 T03660055  RH  015%=      5-min Rain = 0
KPD1 202119Z 23010KT 37/06 A2978 RMK A01 T03690064  RH  015%=      5-min Rain = 0
KPD1 202120Z 23011KT 37/07 A2978 RMK A01 T03730068  RH  015%=      5-min Rain = 0
KPD1 202121Z 24012KT 38/07 A2978 RMK A01 T03760070  RH  015%=      5-min Rain = 0
KPD1 202122Z 23011G16KT 38/05 A2978 RMK A01 T03770054  RH  014%=      5-min Rain = 0
KPD1 202123Z 23012KT 38/05 A2978 RMK A01 T03770053  RH  014%=      5-min Rain = 0
KPD1 202124Z 23011KT 38/06 A2978 RMK A01 T03770055  RH  014%=      5-min Rain = 0
KPD1 202125Z 22008KT 38/05 A2978 RMK A01 T03770053  RH  014%=      5-min Rain = 0
KPD1 202126Z 23010KT 38/06 A2978 RMK A01 T03770060  RH  014%=      5-min Rain = 0
KPD1 202127Z 24009G14KT 38/05 A2978 RMK A01 T03780049  RH  013%=      5-min Rain = 0
KPD1 202128Z 21005KT 38/05 A2978 RMK A01 T03770054  RH  014%=      5-min Rain = 0
KPD1 202129Z 22005KT 38/06 A2978 RMK A01 T03780064  RH  015%=      5-min Rain = 0
KPD1 202130Z 23004KT 38/07 A2977 RMK A01 T03800068  RH  015%=      5-min Rain = 0
KPD1 202131Z 22007G14KT 38/08 A2977 RMK A01 T03820076  RH  016%=      5-min Rain = 0
KPD1 202132Z 25007G12KT 38/07 A2977 RMK A01 T03830073  RH  015%=      5-min Rain = 0
KPD1 202133Z 26007KT 38/06 A2977 RMK A01 T03830060  RH  014%=      5-min Rain = 0
KPD1 202134Z 26009G14KT 38/05 A2977 RMK A01 T03830054  RH  013%=      5-min Rain = 0
KPD1 202135Z 25009G14KT 38/06 A2977 RMK A01 T03820055  RH  013%=      5-min Rain = 0
KPD1 202136Z 24007KT 38/07 A2977 RMK A01 T03820069  RH  015%=      5-min Rain = 0
KPD1 202137Z 25011KT 38/07 A2977 RMK A01 T03830068  RH  015%=      5-min Rain = 0
KPD1 202138Z 25009G14KT 38/06 A2977 RMK A01 T03820056  RH  014%=      5-min Rain = 0
KPD1 202139Z 25010KT 38/06 A2977 RMK A01 T03810062  RH  014%=      5-min Rain = 0
KPD1 202140Z 25009KT 38/06 A2977 RMK A01 T03810057  RH  014%=      5-min Rain = 0
KPD1 202141Z 23007KT 38/07 A2977 RMK A01 T03810067  RH  015%=      5-min Rain = 0
KPD1 202142Z 23007G12KT 38/08 A2977 RMK A01 T03820080  RH  016%=      5-min Rain = 0
KPD1 202143Z 22010KT 38/07 A2977 RMK A01 T03830066  RH  014%=      5-min Rain = 0
KPD1 202144Z 22011G16KT 38/07 A2977 RMK A01 T03830070  RH  015%=      5-min Rain = 0
KPD1 202145Z 22012G17KT 38/06 A2977 RMK A01 T03820062  RH  014%=      5-min Rain = 0
KPD1 202146Z 23010G16KT 38/05 A2977 RMK A01 T03810052  RH  013%=      5-min Rain = 0
KPD1 202147Z 25010KT 38/06 A2977 RMK A01 T03790062  RH  014%=      5-min Rain = 0
KPD1 202148Z 25012KT 38/06 A2977 RMK A01 T03790058  RH  014%=      5-min Rain = 0
KPD1 202149Z 25012KT 38/05 A2977 RMK A01 T03800054  RH  014%=      5-min Rain = 0
KPD1 202150Z 25012KT 38/05 A2977 RMK A01 T03800054  RH  014%=      5-min Rain = 0
KPD1 202151Z 24010G16KT 38/05 A2977 RMK A01 T03790054  RH  014%=      5-min Rain = 0
KPD1 202152Z 25010KT 38/06 A2977 RMK A01 T03780056  RH  014%=      5-min Rain = 0
KPD1 202153Z 25011KT 38/05 A2977 RMK A01 T03780049  RH  013%=      5-min Rain = 0
KPD1 202154Z 25012KT 38/06 A2977 RMK A01 T03780056  RH  014%=      5-min Rain = 0
KPD1 202155Z 24010KT 38/05 A2977 RMK A01 T03780054  RH  014%=      5-min Rain = 0
KPD1 202156Z 24011KT 38/04 A2977 RMK A01 T03780043  RH  013%=      5-min Rain = 0
KPD1 202157Z 24008KT 38/05 A2977 RMK A01 T03780046  RH  013%=      5-min Rain = 0
KPD1 202158Z 23004KT 38/06 A2977 RMK A01 T03770062  RH  014%=      5-min Rain = 0
KPD1 202159Z 23008KT 38/07 A2977 RMK A01 T03800072  RH  015%=      5-min Rain = 0
KPD1 202200Z 24013KT 38/06 A2977 RMK A01 T03820060  RH  014%=      5-min Rain = 0
KPD1 202201Z 24013KT 38/05 A2977 RMK A01 T03800054  RH  014%=      5-min Rain = 0
KPD1 202202Z 24014G20KT 38/05 A2977 RMK A01 T03800051  RH  013%=      5-min Rain = 0
KPD1 202203Z 23014KT 38/04 A2977 RMK A01 T03780041  RH  012%=      5-min Rain = 0
KPD1 202204Z 23011G16KT 37/04 A2977 RMK A01 T03730041  RH  013%=      5-min Rain = 0
KPD1 202205Z 23010KT 37/04 A2977 RMK A01 T03690035  RH  013%=      5-min Rain = 0
KPD1 202206Z 23011KT 37/04 A2977 RMK A01 T03650037  RH  013%=      5-min Rain = 0
KPD1 202207Z 23012KT 36/04 A2977 RMK A01 T03620035  RH  013%=      5-min Rain = 0
KPD1 202208Z 23011KT 36/03 A2977 RMK A01 T03610028  RH  012%=      5-min Rain = 0
KPD1 202209Z 24012G17KT 36/03 A2977 RMK A01 T03640033  RH  013%=      5-min Rain = 0
KPD1 202210Z 24010KT 37/03 A2977 RMK A01 T03660030  RH  012%=      5-min Rain = 0
KPD1 202211Z 24009KT 37/04 A2977 RMK A01 T03660035  RH  013%=      5-min Rain = 0
KPD1 202212Z 24010KT 37/03 A2977 RMK A01 T03650034  RH  013%=      5-min Rain = 0
KPD1 202213Z 24010KT 36/03 A2977 RMK A01 T03610031  RH  013%=      5-min Rain = 0
KPD1 202214Z 24008KT 36/03 A2977 RMK A01 T03600029  RH  013%=      5-min Rain = 0
KPD1 202215Z 23007KT 36/04 A2977 RMK A01 T03590041  RH  014%=      5-min Rain = 0
KPD1 202216Z 23007KT 36/05 A2977 RMK A01 T03590049  RH  015%=      5-min Rain = 0
KPD1 202217Z 23006KT 36/05 A2977 RMK A01 T03590047  RH  014%=      5-min Rain = 0
KPD1 202218Z 23006KT 36/06 A2977 RMK A01 T03610055  RH  015%=      5-min Rain = 0
KPD1 202219Z 23006KT 37/06 A2977 RMK A01 T03660059  RH  015%=      5-min Rain = 0
KPD1 202220Z 22005KT 37/07 A2977 RMK A01 T03700068  RH  016%=      5-min Rain = 0
KPD1 202221Z 22007KT 37/06 A2977 RMK A01 T03730060  RH  015%=      5-min Rain = 0
KPD1 202222Z 22006KT 37/06 A2977 RMK A01 T03740059  RH  014%=      5-min Rain = 0
KPD1 202223Z 23005KT 37/06 A2977 RMK A01 T03730058  RH  014%=      5-min Rain = 0
KPD1 202224Z 22007KT 37/06 A2977 RMK A01 T03720056  RH  014%=      5-min Rain = 0
KPD1 202225Z 22007KT 37/06 A2977 RMK A01 T03700057  RH  015%=      5-min Rain = 0
KPD1 202226Z 24005KT 37/05 A2977 RMK A01 T03700054  RH  014%=      5-min Rain = 0
KPD1 202227Z 23005KT 37/07 A2977 RMK A01 T03700065  RH  015%=      5-min Rain = 0
KPD1 202228Z 22006KT 37/06 A2977 RMK A01 T03700057  RH  015%=      5-min Rain = 0
KPD1 202229Z 21005KT 37/06 A2977 RMK A01 T03710058  RH  015%=      5-min Rain = 0
KPD1 202230Z 21005KT 37/06 A2977 RMK A01 T03740055  RH  014%=      5-min Rain = 0
KPD1 202231Z 23003KT 38/07 A2977 RMK A01 T03760072  RH  016%=      5-min Rain = 0
KPD1 202232Z 22003KT 38/04 A2977 RMK A01 T03770044  RH  013%=      5-min Rain = 0
KPD1 202233Z 20004KT 38/06 A2977 RMK A01 T03770060  RH  014%=      5-min Rain = 0
KPD1 202234Z 25006KT 38/07 A2977 RMK A01 T03780070  RH  015%=      5-min Rain = 0
KPD1 202235Z 22005KT 38/06 A2977 RMK A01 T03790055  RH  014%=      5-min Rain = 0
KPD1 202236Z 20006KT 38/07 A2977 RMK A01 T03800065  RH  015%=      5-min Rain = 0
KPD1 202237Z 20007KT 38/06 A2977 RMK A01 T03800060  RH  014%=      5-min Rain = 0
KPD1 202238Z 20007KT 38/05 A2977 RMK A01 T03810045  RH  013%=      5-min Rain = 0
KPD1 202239Z 23007G12KT 38/06 A2977 RMK A01 T03780060  RH  014%=      5-min Rain = 0
KPD1 202240Z 23007KT 37/04 A2977 RMK A01 T03740043  RH  013%=      5-min Rain = 0
KPD1 202241Z 23008KT 37/05 A2977 RMK A01 T03700045  RH  013%=      5-min Rain = 0
KPD1 202242Z 24007KT 37/05 A2977 RMK A01 T03700051  RH  014%=      5-min Rain = 0
KPD1 202243Z 24008KT 37/05 A2977 RMK A01 T03720048  RH  014%=      5-min Rain = 0
KPD1 202244Z 23008KT 37/04 A2977 RMK A01 T03740044  RH  013%=      5-min Rain = 0
KPD1 202245Z 24009KT 38/04 A2976 RMK A01 T03750042  RH  013%=      5-min Rain = 0
KPD1 202246Z 24009KT 38/04 A2976 RMK A01 T03760036  RH  012%=      5-min Rain = 0
KPD1 202247Z 24007KT 38/05 A2976 RMK A01 T03770047  RH  013%=      5-min Rain = 0
KPD1 202248Z 23005KT 38/05 A2976 RMK A01 T03770048  RH  013%=      5-min Rain = 0
KPD1 202249Z 23006KT 38/04 A2976 RMK A01 T03780041  RH  013%=      5-min Rain = 0
KPD1 202250Z 23007KT 38/05 A2976 RMK A01 T03790049  RH  013%=      5-min Rain = 0
KPD1 202251Z 24007KT 38/05 A2976 RMK A01 T03790045  RH  013%=      5-min Rain = 0
KPD1 202252Z 24007KT 38/03 A2976 RMK A01 T03790030  RH  012%=      5-min Rain = 0
KPD1 202253Z 22005KT 38/04 A2976 RMK A01 T03780044  RH  013%=      5-min Rain = 0
KPD1 202254Z 22004KT 38/06 A2976 RMK A01 T03780056  RH  014%=      5-min Rain = 0
KPD1 202255Z 23006KT 38/05 A2976 RMK A01 T03790054  RH  014%=      5-min Rain = 0
KPD1 202256Z 25005KT 38/06 A2976 RMK A01 T03800055  RH  014%=      5-min Rain = 0
KPD1 202257Z 26006KT 38/06 A2976 RMK A01 T03810055  RH  014%=      5-min Rain = 0
KPD1 202258Z 25005KT 38/05 A2976 RMK A01 T03810047  RH  013%=      5-min Rain = 0
KPD1 202259Z 24004KT 38/06 A2976 RMK A01 T03820055  RH  014%=      5-min Rain = 0
KPD1 202300Z 23010G15KT 38/06 A2976 RMK A01 T03820060  RH  014%=      5-min Rain = 0
KPD1 202301Z 24010KT 38/05 A2976 RMK A01 T03780046  RH  013%=      5-min Rain = 0
KPD1 202302Z 24010KT 38/04 A2976 RMK A01 T03760044  RH  013%=      5-min Rain = 0
KPD1 202303Z 23007KT 38/05 A2976 RMK A01 T03760050  RH  013%=      5-min Rain = 0
KPD1 202304Z 24008KT 38/05 A2976 RMK A01 T03750049  RH  013%=      5-min Rain = 0
KPD1 202305Z 24007KT 37/05 A2976 RMK A01 T03730051  RH  014%=      5-min Rain = 0
KPD1 202306Z 22006KT 37/05 A2976 RMK A01 T03700054  RH  014%=      5-min Rain = 0
KPD1 202307Z 23008KT 37/06 A2976 RMK A01 T03670056  RH  015%=      5-min Rain = 0
KPD1 202308Z 23008KT 37/05 A2976 RMK A01 T03650048  RH  014%=      5-min Rain = 0
KPD1 202309Z 24009KT 36/05 A2976 RMK A01 T03640046  RH  014%=      5-min Rain = 0
KPD1 202310Z 24005KT 37/05 A2976 RMK A01 T03670047  RH  014%=      5-min Rain = 0
KPD1 202311Z 24007KT 37/05 A2976 RMK A01 T03700049  RH  014%=      5-min Rain = 0
KPD1 202312Z 23009KT 37/05 A2976 RMK A01 T03730051  RH  014%=      5-min Rain = 0
KPD1 202313Z 23008KT 38/05 A2976 RMK A01 T03750051  RH  014%=      5-min Rain = 0
KPD1 202314Z 22007KT 38/05 A2976 RMK A01 T03750048  RH  013%=      5-min Rain = 0
KPD1 202315Z 23007KT 38/06 A2976 RMK A01 T03750055  RH  014%=      5-min Rain = 0
KPD1 202316Z 22008KT 38/05 A2976 RMK A01 T03750054  RH  014%=      5-min Rain = 0
KPD1 202317Z 22008KT 38/05 A2976 RMK A01 T03750052  RH  014%=      5-min Rain = 0
KPD1 202318Z 21009G15KT 38/06 A2975 RMK A01 T03750058  RH  014%=      5-min Rain = 0
KPD1 202319Z 21011KT 37/05 A2975 RMK A01 T03740047  RH  013%=      5-min Rain = 0
KPD1 202320Z 23010KT 37/05 A2975 RMK A01 T03730049  RH  014%=      5-min Rain = 0
KPD1 202321Z 22008KT 37/05 A2975 RMK A01 T03720048  RH  014%=      5-min Rain = 0
KPD1 202322Z 21006KT 37/06 A2975 RMK A01 T03710058  RH  015%=      5-min Rain = 0
KPD1 202323Z 22006KT 37/07 A2975 RMK A01 T03720066  RH  015%=      5-min Rain = 0
KPD1 202324Z 21006KT 37/06 A2975 RMK A01 T03730062  RH  015%=      5-min Rain = 0
KPD1 202325Z 22007KT 37/06 A2975 RMK A01 T03730064  RH  015%=      5-min Rain = 0
KPD1 202326Z 21008KT 37/06 A2975 RMK A01 T03710062  RH  015%=      5-min Rain = 0
KPD1 202327Z 21009KT 37/05 A2975 RMK A01 T03680050  RH  014%=      5-min Rain = 0
KPD1 202328Z 22008KT 37/05 A2975 RMK A01 T03650051  RH  014%=      5-min Rain = 0
KPD1 202329Z 21008KT 36/05 A2975 RMK A01 T03640050  RH  014%=      5-min Rain = 0
KPD1 202330Z 21007KT 36/05 A2975 RMK A01 T03640046  RH  014%=      5-min Rain = 0
KPD1 202331Z 21007KT 37/05 A2975 RMK A01 T03660047  RH  014%=      5-min Rain = 0
KPD1 202332Z 20008KT 37/05 A2975 RMK A01 T03680051  RH  014%=      5-min Rain = 0
KPD1 202333Z 19008KT 37/05 A2975 RMK A01 T03690054  RH  014%=      5-min Rain = 0
KPD1 202334Z 18009KT 37/05 A2975 RMK A01 T03700053  RH  014%=      5-min Rain = 0
KPD1 202335Z 19008KT 37/05 A2975 RMK A01 T03700054  RH  014%=      5-min Rain = 0
KPD1 202336Z 20006KT 37/05 A2975 RMK A01 T03690049  RH  014%=      5-min Rain = 0
KPD1 202337Z 20008KT 37/06 A2975 RMK A01 T03660058  RH  015%=      5-min Rain = 0
KPD1 202338Z 21009KT 36/05 A2975 RMK A01 T03620047  RH  014%=      5-min Rain = 0
KPD1 202339Z 21008KT 36/05 A2975 RMK A01 T03590050  RH  015%=      5-min Rain = 0
KPD1 202340Z 22008KT 36/06 A2975 RMK A01 T03580056  RH  016%=      5-min Rain = 0
KPD1 202341Z 25008KT 36/06 A2975 RMK A01 T03550060  RH  016%=      5-min Rain = 0
KPD1 202342Z 27006KT 35/05 A2975 RMK A01 T03530052  RH  015%=      5-min Rain = 0
KPD1 202343Z 23003KT 35/05 A2975 RMK A01 T03530051  RH  015%=      5-min Rain = 0
KPD1 202344Z 21006KT 35/06 A2975 RMK A01 T03530057  RH  016%=      5-min Rain = 0
KPD1 202345Z 22005KT 35/07 A2975 RMK A01 T03530067  RH  017%=      5-min Rain = 0
KPD1 202346Z 21006KT 35/06 A2975 RMK A01 T03520062  RH  017%=      5-min Rain = 0
KPD1 202347Z 21008KT 35/05 A2975 RMK A01 T03520052  RH  016%=      5-min Rain = 0
KPD1 202348Z 20005KT 35/06 A2975 RMK A01 T03540060  RH  016%=      5-min Rain = 0
KPD1 202349Z 20007KT 36/06 A2975 RMK A01 T03550061  RH  016%=      5-min Rain = 0
KPD1 202350Z 19006KT 36/06 A2975 RMK A01 T03580061  RH  016%=      5-min Rain = 0
KPD1 202351Z 18007KT 36/07 A2975 RMK A01 T03610068  RH  017%=      5-min Rain = 0
KPD1 202352Z 20007KT 36/06 A2975 RMK A01 T03620064  RH  016%=      5-min Rain = 0
KPD1 202353Z 18006KT 36/07 A2975 RMK A01 T03640070  RH  016%=      5-min Rain = 0
KPD1 202354Z 19006KT 37/08 A2975 RMK A01 T03660076  RH  017%=      5-min Rain = 0
KPD1 202355Z 17007KT 37/07 A2975 RMK A01 T03660074  RH  017%=      5-min Rain = 0
KPD1 202356Z 18006KT 37/08 A2975 RMK A01 T03660075  RH  017%=      5-min Rain = 0
KPD1 202357Z 19006KT 37/08 A2975 RMK A01 T03660079  RH  017%=      5-min Rain = 0
KPD1 202358Z 19008KT 37/08 A2975 RMK A01 T03660079  RH  017%=      5-min Rain = 0
KPD1 202359Z 19008KT 37/06 A2975 RMK A01 T03670062  RH  015%=      5-min Rain = 0
KPD1 210000Z 18009KT 37/07 A2975 RMK A01 T03660068  RH  016%=      5-min Rain = 0
KPD1 210001Z 18010KT 37/07 A2975 RMK A01 T03660066  RH  016%=      5-min Rain = 0
KPD1 210002Z 18013KT 37/06 A2975 RMK A01 T03650063  RH  016%=      5-min Rain = 0
KPD1 210003Z 18012KT 36/06 A2975 RMK A01 T03640063  RH  016%=      5-min Rain = 0
KPD1 210004Z 18009G14KT 36/07 A2975 RMK A01 T03630065  RH  016%=      5-min Rain = 0
KPD1 210005Z 18010G15KT 36/06 A2974 RMK A01 T03630062  RH  016%=      5-min Rain = 0
KPD1 210006Z 18015G20KT 36/06 A2974 RMK A01 T03640062  RH  016%=      5-min Rain = 0
KPD1 210007Z 18013G18KT 36/06 A2974 RMK A01 T03630059  RH  015%=      5-min Rain = 0
KPD1 210008Z 19015KT 36/06 A2974 RMK A01 T03620057  RH  015%=      5-min Rain = 0
KPD1 210009Z 20012G17KT 36/05 A2974 RMK A01 T03630053  RH  015%=      5-min Rain = 0
KPD1 210010Z 20011KT 36/06 A2974 RMK A01 T03620057  RH  015%=      5-min Rain = 0
KPD1 210011Z 18013KT 36/06 A2974 RMK A01 T03620056  RH  015%=      5-min Rain = 0
KPD1 210012Z 19010KT 36/06 A2974 RMK A01 T03610056  RH  015%=      5-min Rain = 0
KPD1 210013Z 18010KT 36/06 A2974 RMK A01 T03610061  RH  016%=      5-min Rain = 0
KPD1 210014Z 18011G17KT 36/06 A2974 RMK A01 T03600058  RH  015%=      5-min Rain = 0
KPD1 210015Z 19012KT 36/05 A2974 RMK A01 T03600053  RH  015%=      5-min Rain = 0
KPD1 210016Z 18011KT 36/06 A2974 RMK A01 T03600056  RH  015%=      5-min Rain = 0
KPD1 210017Z 19009KT 36/06 A2974 RMK A01 T03600057  RH  015%=      5-min Rain = 0
KPD1 210018Z 19009KT 36/06 A2974 RMK A01 T03590058  RH  016%=      5-min Rain = 0
KPD1 210019Z 18012KT 36/05 A2974 RMK A01 T03590054  RH  015%=      5-min Rain = 0
KPD1 210020Z 18012G18KT 36/05 A2974 RMK A01 T03590053  RH  015%=      5-min Rain = 0
KPD1 210021Z 18014KT 36/05 A2974 RMK A01 T03580049  RH  015%=      5-min Rain = 0
KPD1 210022Z 17013KT 36/04 A2974 RMK A01 T03580044  RH  014%=      5-min Rain = 0
KPD1 210023Z 17010KT 36/05 A2974 RMK A01 T03580046  RH  014%=      5-min Rain = 0
KPD1 210024Z 18010G15KT 36/05 A2974 RMK A01 T03570050  RH  015%=      5-min Rain = 0
KPD1 210025Z 18014KT 36/05 A2974 RMK A01 T03570049  RH  015%=      5-min Rain = 0
KPD1 210026Z 18014KT 36/05 A2974 RMK A01 T03570047  RH  015%=      5-min Rain = 0
KPD1 210027Z 18012G17KT 36/05 A2974 RMK A01 T03560048  RH  015%=      5-min Rain = 0
KPD1 210028Z 18013KT 36/04 A2974 RMK A01 T03560044  RH  014%=      5-min Rain = 0
KPD1 210029Z 18010KT 36/05 A2974 RMK A01 T03560049  RH  015%=      5-min Rain = 0
KPD1 210030Z 18010KT 36/05 A2974 RMK A01 T03560052  RH  015%=      5-min Rain = 0
KPD1 210031Z 19010KT 36/05 A2974 RMK A01 T03550050  RH  015%=      5-min Rain = 0
KPD1 210032Z 18011KT 36/05 A2974 RMK A01 T03550052  RH  015%=      5-min Rain = 0
KPD1 210033Z 18010KT 36/05 A2974 RMK A01 T03550048  RH  015%=      5-min Rain = 0
KPD1 210034Z 18011KT 35/05 A2974 RMK A01 T03540048  RH  015%=      5-min Rain = 0
KPD1 210035Z 18011KT 35/05 A2974 RMK A01 T03540048  RH  015%=      5-min Rain = 0
KPD1 210036Z 18012KT 35/05 A2974 RMK A01 T03530047  RH  015%=      5-min Rain = 0
KPD1 210037Z 19008KT 35/05 A2974 RMK A01 T03530049  RH  015%=      5-min Rain = 0
KPD1 210038Z 18008KT 35/05 A2974 RMK A01 T03530054  RH  016%=      5-min Rain = 0
KPD1 210039Z 19010KT 35/06 A2974 RMK A01 T03520055  RH  016%=      5-min Rain = 0
KPD1 210040Z 19009KT 35/05 A2974 RMK A01 T03510046  RH  015%=      5-min Rain = 0
KPD1 210041Z 19008KT 35/05 A2974 RMK A01 T03510052  RH  016%=      5-min Rain = 0
KPD1 210042Z 18011KT 35/05 A2974 RMK A01 T03510052  RH  016%=      5-min Rain = 0
KPD1 210043Z 18010KT 35/05 A2974 RMK A01 T03500046  RH  015%=      5-min Rain = 0
KPD1 210044Z 19011KT 35/05 A2974 RMK A01 T03500048  RH  015%=      5-min Rain = 0
KPD1 210045Z 18011G16KT 35/04 A2974 RMK A01 T03500043  RH  015%=      5-min Rain = 0
KPD1 210046Z 18010KT 35/04 A2974 RMK A01 T03500043  RH  015%=      5-min Rain = 0
KPD1 210047Z 18010KT 35/05 A2974 RMK A01 T03500047  RH  015%=      5-min Rain = 0
KPD1 210048Z 17011KT 35/05 A2974 RMK A01 T03500048  RH  015%=      5-min Rain = 0
KPD1 210049Z 17009KT 35/04 A2974 RMK A01 T03490043  RH  015%=      5-min Rain = 0
KPD1 210050Z 18008KT 35/05 A2974 RMK A01 T03490049  RH  016%=      5-min Rain = 0
KPD1 210051Z 18010KT 35/05 A2974 RMK A01 T03480049  RH  016%=      5-min Rain = 0
KPD1 210052Z 18010KT 35/05 A2974 RMK A01 T03480048  RH  015%=      5-min Rain = 0
KPD1 210053Z 18012G17KT 35/04 A2974 RMK A01 T03470044  RH  015%=      5-min Rain = 0
KPD1 210054Z 19011KT 35/04 A2974 RMK A01 T03470041  RH  015%=      5-min Rain = 0
KPD1 210055Z 19008G15KT 35/04 A2974 RMK A01 T03480044  RH  015%=      5-min Rain = 0
KPD1 210056Z 19011KT 35/05 A2974 RMK A01 T03470045  RH  015%=      5-min Rain = 0
KPD1 210057Z 19011KT 35/05 A2974 RMK A01 T03470046  RH  015%=      5-min Rain = 0
KPD1 210058Z 19010KT 35/05 A2974 RMK A01 T03470046  RH  015%=      5-min Rain = 0
KPD1 210059Z 19008KT 35/05 A2974 RMK A01 T03460049  RH  016%=      5-min Rain = 0
KPD1 210100Z 19012KT 35/05 A2974 RMK A01 T03450046  RH  016%=      5-min Rain = 0
KPD1 210101Z 18008KT 34/05 A2974 RMK A01 T03440045  RH  015%=      5-min Rain = 0
KPD1 210102Z 19011G16KT 35/05 A2974 RMK A01 T03450047  RH  016%=      5-min Rain = 0
KPD1 210103Z 19012KT 34/04 A2974 RMK A01 T03440044  RH  015%=      5-min Rain = 0
KPD1 210104Z 18010KT 34/04 A2974 RMK A01 T03440043  RH  015%=      5-min Rain = 0
KPD1 210105Z 19008KT 34/05 A2974 RMK A01 T03440047  RH  016%=      5-min Rain = 0
KPD1 210106Z 19012KT 34/05 A2974 RMK A01 T03430045  RH  016%=      5-min Rain = 0
KPD1 210107Z 18013KT 34/04 A2974 RMK A01 T03430040  RH  015%=      5-min Rain = 0
KPD1 210108Z 19012KT 34/04 A2974 RMK A01 T03430041  RH  015%=      5-min Rain = 0
KPD1 210109Z 18011KT 34/04 A2974 RMK A01 T03430040  RH  015%=      5-min Rain = 0
KPD1 210110Z 19009KT 34/04 A2974 RMK A01 T03440042  RH  015%=      5-min Rain = 0
KPD1 210111Z 18011G17KT 34/04 A2974 RMK A01 T03430042  RH  015%=      5-min Rain = 0
KPD1 210112Z 18013KT 34/04 A2974 RMK A01 T03440043  RH  015%=      5-min Rain = 0
KPD1 210113Z 18010KT 34/04 A2974 RMK A01 T03430041  RH  015%=      5-min Rain = 0
KPD1 210114Z 18010G15KT 34/04 A2974 RMK A01 T03430043  RH  015%=      5-min Rain = 0
KPD1 210115Z 18012KT 34/04 A2974 RMK A01 T03420043  RH  015%=      5-min Rain = 0
KPD1 210116Z 19009KT 34/04 A2974 RMK A01 T03420044  RH  016%=      5-min Rain = 0
KPD1 210117Z 18009KT 34/05 A2974 RMK A01 T03400045  RH  016%=      5-min Rain = 0
KPD1 210118Z 18012G17KT 34/05 A2974 RMK A01 T03390045  RH  016%=      5-min Rain = 0
KPD1 210119Z 18010KT 34/04 A2974 RMK A01 T03390042  RH  016%=      5-min Rain = 0
KPD1 210120Z 19008KT 34/04 A2974 RMK A01 T03390044  RH  016%=      5-min Rain = 0
KPD1 210121Z 19010KT 34/05 A2974 RMK A01 T03390045  RH  016%=      5-min Rain = 0
KPD1 210122Z 18009KT 34/04 A2974 RMK A01 T03380044  RH  016%=      5-min Rain = 0
KPD1 210123Z 19012KT 34/04 A2974 RMK A01 T03370044  RH  016%=      5-min Rain = 0
KPD1 210124Z 18010KT 34/04 A2974 RMK A01 T03370043  RH  016%=      5-min Rain = 0
KPD1 210125Z 18010KT 34/04 A2974 RMK A01 T03370044  RH  016%=      5-min Rain = 0
KPD1 210126Z 19010KT 34/04 A2974 RMK A01 T03370044  RH  016%=      5-min Rain = 0
KPD1 210127Z 18010KT 34/05 A2974 RMK A01 T03360045  RH  016%=      5-min Rain = 0
KPD1 210128Z 19010KT 34/05 A2974 RMK A01 T03360045  RH  016%=      5-min Rain = 0
KPD1 210129Z 18009KT 34/05 A2974 RMK A01 T03350047  RH  016%=      5-min Rain = 0
KPD1 210130Z 18009KT 33/05 A2974 RMK A01 T03340048  RH  017%=      5-min Rain = 0
KPD1 210131Z 19009KT 33/05 A2974 RMK A01 T03330047  RH  017%=      5-min Rain = 0
KPD1 210132Z 19009KT 33/05 A2974 RMK A01 T03320046  RH  017%=      5-min Rain = 0
KPD1 210133Z 19010KT 33/05 A2974 RMK A01 T03320046  RH  017%=      5-min Rain = 0
KPD1 210134Z 18009KT 33/05 A2974 RMK A01 T03310046  RH  017%=      5-min Rain = 0
KPD1 210135Z 19009KT 33/05 A2974 RMK A01 T03310046  RH  017%=      5-min Rain = 0
KPD1 210136Z 19010KT 33/05 A2974 RMK A01 T03310048  RH  017%=      5-min Rain = 0
KPD1 210137Z 18009KT 33/05 A2974 RMK A01 T03300045  RH  017%=      5-min Rain = 0
KPD1 210138Z 19010KT 33/04 A2974 RMK A01 T03300044  RH  017%=      5-min Rain = 0
KPD1 210139Z 19011KT 33/05 A2974 RMK A01 T03300045  RH  017%=      5-min Rain = 0
KPD1 210140Z 18008KT 33/04 A2974 RMK A01 T03300044  RH  017%=      5-min Rain = 0
KPD1 210141Z 18008KT 33/05 A2974 RMK A01 T03310047  RH  017%=      5-min Rain = 0
KPD1 210142Z 19008KT 33/05 A2974 RMK A01 T03290047  RH  017%=      5-min Rain = 0
KPD1 210143Z 19008KT 33/05 A2974 RMK A01 T03270046  RH  017%=      5-min Rain = 0
KPD1 210144Z 19010G15KT 33/05 A2974 RMK A01 T03260048  RH  017%=      5-min Rain = 0
KPD1 210145Z 19012KT 33/05 A2974 RMK A01 T03260045  RH  017%=      5-min Rain = 0
KPD1 210146Z 19009KT 33/04 A2974 RMK A01 T03250044  RH  017%=      5-min Rain = 0
KPD1 210147Z 18008KT 33/05 A2974 RMK A01 T03260045  RH  017%=      5-min Rain = 0
KPD1 210148Z 18010KT 33/05 A2974 RMK A01 T03260045  RH  017%=      5-min Rain = 0
KPD1 210149Z 19010KT 33/04 A2974 RMK A01 T03250044  RH  017%=      5-min Rain = 0
KPD1 210150Z 19011KT 33/04 A2974 RMK A01 T03250044  RH  017%=      5-min Rain = 0
KPD1 210151Z 19009KT 33/04 A2974 RMK A01 T03250044  RH  017%=      5-min Rain = 0
KPD1 210152Z 19011KT 33/05 A2974 RMK A01 T03250046  RH  017%=      5-min Rain = 0
KPD1 210153Z 19012KT 33/04 A2974 RMK A01 T03250044  RH  017%=      5-min Rain = 0
KPD1 210154Z 19011KT 33/05 A2974 RMK A01 T03250045  RH  017%=      5-min Rain = 0
KPD1 210155Z 19010KT 32/05 A2974 RMK A01 T03240045  RH  017%=      5-min Rain = 0
KPD1 210156Z 19010KT 33/05 A2974 RMK A01 T03250046  RH  017%=      5-min Rain = 0
KPD1 210157Z 19009KT 32/05 A2974 RMK A01 T03230045  RH  017%=      5-min Rain = 0
KPD1 210158Z 18009KT 32/04 A2974 RMK A01 T03230044  RH  017%=      5-min Rain = 0
KPD1 210159Z 18009KT 32/05 A2974 RMK A01 T03230045  RH  017%=      5-min Rain = 0
KPD1 210200Z 18008KT 32/05 A2974 RMK A01 T03220046  RH  018%=      5-min Rain = 0
KPD1 210201Z 19011KT 32/05 A2974 RMK A01 T03220046  RH  018%=      5-min Rain = 0
KPD1 210202Z 19010KT 32/04 A2974 RMK A01 T03200042  RH  017%=      5-min Rain = 0
KPD1 210203Z 18011KT 32/04 A2974 RMK A01 T03210041  RH  017%=      5-min Rain = 0
KPD1 210204Z 18012KT 32/04 A2974 RMK A01 T03220043  RH  017%=      5-min Rain = 0
KPD1 210205Z 18011KT 32/04 A2974 RMK A01 T03220041  RH  017%=      5-min Rain = 0
KPD1 210206Z 18010KT 32/04 A2974 RMK A01 T03230043  RH  017%=      5-min Rain = 0
KPD1 210207Z 18009KT 32/04 A2974 RMK A01 T03230043  RH  017%=      5-min Rain = 0
KPD1 210208Z 18010KT 32/04 A2974 RMK A01 T03230042  RH  017%=      5-min Rain = 0
KPD1 210209Z 19008KT 32/04 A2974 RMK A01 T03230042  RH  017%=      5-min Rain = 0
KPD1 210210Z 18009KT 32/04 A2974 RMK A01 T03220044  RH  017%=      5-min Rain = 0
KPD1 210211Z 18009KT 32/05 A2974 RMK A01 T03200045  RH  018%=      5-min Rain = 0
KPD1 210212Z 18009KT 32/04 A2974 RMK A01 T03180044  RH  018%=      5-min Rain = 0
KPD1 210213Z 18008KT 32/04 A2974 RMK A01 T03180044  RH  018%=      5-min Rain = 0
KPD1 210214Z 18010KT 32/04 A2974 RMK A01 T03170042  RH  018%=      5-min Rain = 0
KPD1 210215Z 18011KT 32/04 A2974 RMK A01 T03170041  RH  017%=      5-min Rain = 0
KPD1 210216Z 19009KT 32/04 A2974 RMK A01 T03180042  RH  018%=      5-min Rain = 0
KPD1 210217Z 18011KT 32/04 A2974 RMK A01 T03180042  RH  018%=      5-min Rain = 0
KPD1 210218Z 18012KT 32/04 A2974 RMK A01 T03180041  RH  017%=      5-min Rain = 0
KPD1 210219Z 18010KT 32/04 A2974 RMK A01 T03190040  RH  017%=      5-min Rain = 0
KPD1 210220Z 18009KT 32/04 A2974 RMK A01 T03190041  RH  017%=      5-min Rain = 0
KPD1 210221Z 18009KT 32/04 A2974 RMK A01 T03190042  RH  017%=      5-min Rain = 0
KPD1 210222Z 18009KT 32/04 A2974 RMK A01 T03180042  RH  018%=      5-min Rain = 0
KPD1 210223Z 18010KT 32/04 A2974 RMK A01 T03170043  RH  018%=      5-min Rain = 0
KPD1 210224Z 18010KT 32/04 A2974 RMK A01 T03160044  RH  018%=      5-min Rain = 0
KPD1 210225Z 18011KT 32/04 A2974 RMK A01 T03160042  RH  018%=      5-min Rain = 0
KPD1 210226Z 18011KT 32/04 A2974 RMK A01 T03150040  RH  018%=      5-min Rain = 0
KPD1 210227Z 18012KT 32/04 A2974 RMK A01 T03170040  RH  017%=      5-min Rain = 0
KPD1 210228Z 18008KT 32/04 A2974 RMK A01 T03170040  RH  017%=      5-min Rain = 0
KPD1 210229Z 18011KT 32/04 A2974 RMK A01 T03180042  RH  018%=      5-min Rain = 0
KPD1 210230Z 18011KT 32/04 A2974 RMK A01 T03160042  RH  018%=      5-min Rain = 0
KPD1 210231Z 18009G14KT 32/04 A2974 RMK A01 T03160041  RH  018%=      5-min Rain = 0
KPD1 210232Z 18009KT 32/04 A2974 RMK A01 T03150041  RH  018%=      5-min Rain = 0
KPD1 210233Z 18011KT 32/04 A2974 RMK A01 T03150041  RH  018%=      5-min Rain = 0
KPD1 210234Z 18010KT 32/04 A2974 RMK A01 T03150040  RH  018%=      5-min Rain = 0
KPD1 210235Z 18011KT 32/04 A2974 RMK A01 T03150041  RH  018%=      5-min Rain = 0
KPD1 210236Z 18010KT 32/04 A2974 RMK A01 T03150040  RH  018%=      5-min Rain = 0
KPD1 210237Z 18011KT 32/04 A2974 RMK A01 T03150041  RH  018%=      5-min Rain = 0
KPD1 210238Z 18010KT 32/04 A2974 RMK A01 T03150041  RH  018%=      5-min Rain = 0
KPD1 210239Z 18010KT 32/04 A2974 RMK A01 T03150040  RH  018%=      5-min Rain = 0
KPD1 210240Z 18010KT 32/04 A2974 RMK A01 T03150040  RH  018%=      5-min Rain = 0
KPD1 210241Z 18010KT 32/04 A2974 RMK A01 T03160040  RH  017%=      5-min Rain = 0
KPD1 210242Z 18011KT 32/04 A2974 RMK A01 T03160040  RH  017%=      5-min Rain = 0
KPD1 210243Z 18011KT 32/04 A2974 RMK A01 T03160040  RH  017%=      5-min Rain = 0
KPD1 210244Z 17011KT 32/04 A2974 RMK A01 T03160040  RH  018%=      5-min Rain = 0
KPD1 210245Z 18010KT 32/04 A2974 RMK A01 T03150039  RH  017%=      5-min Rain = 0
KPD1 210246Z 18009KT 32/04 A2974 RMK A01 T03160040  RH  018%=      5-min Rain = 0
KPD1 210247Z 18009KT 32/04 A2974 RMK A01 T03160041  RH  018%=      5-min Rain = 0
KPD1 210248Z 18011KT 32/04 A2975 RMK A01 T03150041  RH  018%=      5-min Rain = 0
KPD1 210249Z 18010KT 31/04 A2975 RMK A01 T03140040  RH  018%=      5-min Rain = 0
KPD1 210250Z 18011G16KT 31/04 A2975 RMK A01 T03140040  RH  018%=      5-min Rain = 0
KPD1 210251Z 18010KT 31/04 A2975 RMK A01 T03140040  RH  018%=      5-min Rain = 0
KPD1 210252Z 18010KT 32/04 A2975 RMK A01 T03150041  RH  018%=      5-min Rain = 0
KPD1 210253Z 18009KT 32/04 A2975 RMK A01 T03150041  RH  018%=      5-min Rain = 0
KPD1 210254Z 18010KT 32/04 A2975 RMK A01 T03150041  RH  018%=      5-min Rain = 0
KPD1 210255Z 17007KT 32/04 A2975 RMK A01 T03150041  RH  018%=      5-min Rain = 0
KPD1 210256Z 18010KT 32/04 A2975 RMK A01 T03150041  RH  018%=      5-min Rain = 0
KPD1 210257Z 18011KT 31/04 A2975 RMK A01 T03140041  RH  018%=      5-min Rain = 0
KPD1 210258Z 18010KT 31/04 A2975 RMK A01 T03140040  RH  018%=      5-min Rain = 0
KPD1 210259Z 18011KT 31/04 A2975 RMK A01 T03140041  RH  018%=      5-min Rain = 0
KPD1 210300Z 18008KT 31/04 A2975 RMK A01 T03140041  RH  018%=      5-min Rain = 0
KPD1 210301Z 17009KT 31/04 A2975 RMK A01 T03140041  RH  018%=      5-min Rain = 0
KPD1 210302Z 18008G15KT 31/04 A2975 RMK A01 T03130041  RH  018%=      5-min Rain = 0
KPD1 210303Z 18010KT 31/04 A2975 RMK A01 T03130042  RH  018%=      5-min Rain = 0
KPD1 210304Z 18009KT 31/04 A2975 RMK A01 T03130042  RH  018%=      5-min Rain = 0
KPD1 210305Z 19008KT 31/04 A2975 RMK A01 T03120043  RH  018%=      5-min Rain = 0
KPD1 210306Z 18010KT 31/04 A2975 RMK A01 T03110043  RH  018%=      5-min Rain = 0
KPD1 210307Z 18011KT 31/04 A2975 RMK A01 T03100043  RH  018%=      5-min Rain = 0
KPD1 210308Z 19009KT 31/04 A2975 RMK A01 T03100043  RH  019%=      5-min Rain = 0
KPD1 210309Z 18008KT 31/04 A2975 RMK A01 T03100043  RH  019%=      5-min Rain = 0
KPD1 210310Z 19009KT 31/04 A2975 RMK A01 T03090044  RH  019%=      5-min Rain = 0
KPD1 210311Z 19009KT 31/04 A2975 RMK A01 T03090043  RH  019%=      5-min Rain = 0
KPD1 210312Z 18010KT 31/04 A2975 RMK A01 T03090044  RH  019%=      5-min Rain = 0
KPD1 210313Z 18009G16KT 31/04 A2975 RMK A01 T03090044  RH  019%=      5-min Rain = 0
KPD1 210314Z 18012KT 31/04 A2975 RMK A01 T03090044  RH  019%=      5-min Rain = 0
KPD1 210315Z 18009KT 31/04 A2975 RMK A01 T03100044  RH  019%=      5-min Rain = 0
KPD1 210316Z 18010G15KT 31/05 A2975 RMK A01 T03100045  RH  019%=      5-min Rain = 0
KPD1 210317Z 18010KT 31/05 A2975 RMK A01 T03100046  RH  019%=      5-min Rain = 0
KPD1 210318Z 19009G14KT 31/05 A2975 RMK A01 T03100047  RH  019%=      5-min Rain = 0
KPD1 210319Z 19010KT 31/05 A2975 RMK A01 T03090047  RH  019%=      5-min Rain = 0
KPD1 210320Z 18011KT 31/05 A2975 RMK A01 T03090046  RH  019%=      5-min Rain = 0
KPD1 210321Z 18010KT 31/05 A2975 RMK A01 T03080046  RH  019%=      5-min Rain = 0
KPD1 210322Z 18009KT 31/05 A2975 RMK A01 T03080046  RH  019%=      5-min Rain = 0
KPD1 210323Z 18008KT 31/05 A2975 RMK A01 T03080048  RH  019%=      5-min Rain = 0
KPD1 210324Z 18010KT 31/05 A2975 RMK A01 T03080049  RH  020%=      5-min Rain = 0
KPD1 210325Z 18009KT 31/05 A2975 RMK A01 T03060048  RH  020%=      5-min Rain = 0
KPD1 210326Z 19010G15KT 31/05 A2975 RMK A01 T03060048  RH  020%=      5-min Rain = 0
KPD1 210327Z 19011KT 31/05 A2976 RMK A01 T03050048  RH  020%=      5-min Rain = 0
KPD1 210328Z 19009KT 31/05 A2976 RMK A01 T03050048  RH  020%=      5-min Rain = 0
KPD1 210329Z 19011G18KT 31/05 A2976 RMK A01 T03050048  RH  020%=      5-min Rain = 0
KPD1 210330Z 19012KT 30/05 A2976 RMK A01 T03040045  RH  019%=      5-min Rain = 0
KPD1 210331Z 19010KT 31/05 A2976 RMK A01 T03060046  RH  019%=      5-min Rain = 0
KPD1 210332Z 19011KT 31/05 A2976 RMK A01 T03060046  RH  019%=      5-min Rain = 0
KPD1 210333Z 19009KT 31/05 A2976 RMK A01 T03060046  RH  019%=      5-min Rain = 0
KPD1 210334Z 19012KT 31/05 A2976 RMK A01 T03060047  RH  019%=      5-min Rain = 0
KPD1 210335Z 19012KT 31/05 A2976 RMK A01 T03060046  RH  019%=      5-min Rain = 0
KPD1 210336Z 19011KT 31/05 A2976 RMK A01 T03060045  RH  019%=      5-min Rain = 0
KPD1 210337Z 19010G15KT 31/05 A2976 RMK A01 T03070045  RH  019%=      5-min Rain = 0
KPD1 210338Z 19010KT 31/05 A2976 RMK A01 T03070045  RH  019%=      5-min Rain = 0
KPD1 210339Z 18009KT 31/05 A2976 RMK A01 T03060045  RH  019%=      5-min Rain = 0
KPD1 210340Z 19011G16KT 31/05 A2976 RMK A01 T03060045  RH  019%=      5-min Rain = 0
KPD1 210341Z 19010KT 31/04 A2976 RMK A01 T03060044  RH  019%=      5-min Rain = 0
KPD1 210342Z 19010KT 31/05 A2976 RMK A01 T03050045  RH  019%=      5-min Rain = 0
KPD1 210343Z 18010KT 30/05 A2976 RMK A01 T03040046  RH  020%=      5-min Rain = 0
KPD1 210344Z 18009KT 30/05 A2976 RMK A01 T03030046  RH  020%=      5-min Rain = 0
KPD1 210345Z 18010KT 30/05 A2976 RMK A01 T03010047  RH  020%=      5-min Rain = 0
KPD1 210346Z 18009KT 30/05 A2976 RMK A01 T03000046  RH  020%=      5-min Rain = 0
KPD1 210347Z 19009KT 30/05 A2976 RMK A01 T03000047  RH  020%=      5-min Rain = 0
KPD1 210348Z 19011KT 30/05 A2976 RMK A01 T02980047  RH  020%=      5-min Rain = 0
KPD1 210349Z 19010KT 30/05 A2976 RMK A01 T02980047  RH  020%=      5-min Rain = 0
KPD1 210350Z 19010KT 30/05 A2976 RMK A01 T02980048  RH  020%=      5-min Rain = 0
KPD1 210351Z 19010KT 30/05 A2976 RMK A01 T02980048  RH  020%=      5-min Rain = 0
KPD1 210352Z 19009G14KT 30/05 A2976 RMK A01 T02970048  RH  021%=      5-min Rain = 0
KPD1 210353Z 18010G15KT 30/05 A2976 RMK A01 T02970048  RH  021%=      5-min Rain = 0
KPD1 210354Z 18010KT 30/05 A2976 RMK A01 T02970047  RH  021%=      5-min Rain = 0
KPD1 210355Z 19008KT 30/05 A2976 RMK A01 T02970047  RH  021%=      5-min Rain = 0
KPD1 210356Z 18008KT 30/05 A2976 RMK A01 T02970048  RH  021%=      5-min Rain = 0
KPD1 210357Z 19009KT 30/05 A2976 RMK A01 T02970048  RH  021%=      5-min Rain = 0
KPD1 210358Z 19010KT 30/05 A2976 RMK A01 T02970047  RH  021%=      5-min Rain = 0
KPD1 210359Z 18006KT 30/05 A2976 RMK A01 T02960047  RH  021%=      5-min Rain = 0
KPD1 210400Z 18008KT 30/05 A2976 RMK A01 T02960048  RH  021%=      5-min Rain = 0
KPD1 210401Z 18008KT 30/05 A2976 RMK A01 T02960047  RH  021%=      5-min Rain = 0
KPD1 210402Z 18009KT 30/05 A2976 RMK A01 T02950047  RH  021%=      5-min Rain = 0
KPD1 210403Z 19008KT 30/05 A2976 RMK A01 T02950046  RH  021%=      5-min Rain = 0
KPD1 210404Z 18008G13KT 30/05 A2976 RMK A01 T02960046  RH  020%=      5-min Rain = 0
KPD1 210405Z 19008KT 30/05 A2976 RMK A01 T02960045  RH  020%=      5-min Rain = 0
KPD1 210406Z 19008KT 30/05 A2976 RMK A01 T02960045  RH  020%=      5-min Rain = 0
KPD1 210407Z 19010KT 30/04 A2976 RMK A01 T02970044  RH  020%=      5-min Rain = 0
KPD1 210408Z 19006KT 30/05 A2976 RMK A01 T02970046  RH  020%=      5-min Rain = 0
KPD1 210409Z 19009G19KT 30/05 A2976 RMK A01 T02970047  RH  020%=      5-min Rain = 0
KPD1 210410Z 19009KT 30/04 A2976 RMK A01 T02970044  RH  020%=      5-min Rain = 0
KPD1 210411Z 19008KT 30/05 A2976 RMK A01 T02970045  RH  020%=      5-min Rain = 0
KPD1 210412Z 19008KT 30/05 A2976 RMK A01 T02980047  RH  020%=      5-min Rain = 0
KPD1 210413Z 20008KT 30/05 A2976 RMK A01 T02970048  RH  021%=      5-min Rain = 0
KPD1 210414Z 19007G12KT 30/05 A2976 RMK A01 T02960048  RH  021%=      5-min Rain = 0
KPD1 210415Z 19009KT 30/05 A2976 RMK A01 T02950048  RH  021%=      5-min Rain = 0
KPD1 210416Z 19008KT 29/05 A2976 RMK A01 T02940049  RH  021%=      5-min Rain = 0
KPD1 210417Z 19008KT 29/05 A2976 RMK A01 T02940049  RH  021%=      5-min Rain = 0
KPD1 210418Z 19006KT 29/05 A2976 RMK A01 T02930049  RH  021%=      5-min Rain = 0
KPD1 210419Z 18006KT 29/05 A2977 RMK A01 T02920050  RH  021%=      5-min Rain = 0
KPD1 210420Z 18006KT 29/05 A2977 RMK A01 T02910050  RH  022%=      5-min Rain = 0
KPD1 210421Z 18006KT 29/05 A2977 RMK A01 T02900050  RH  022%=      5-min Rain = 0
KPD1 210422Z 18007KT 29/05 A2977 RMK A01 T02890049  RH  022%=      5-min Rain = 0
KPD1 210423Z 17006KT 29/05 A2977 RMK A01 T02890051  RH  022%=      5-min Rain = 0
KPD1 210424Z 18008KT 29/05 A2977 RMK A01 T02890052  RH  022%=      5-min Rain = 0
KPD1 210425Z 19008KT 29/05 A2977 RMK A01 T02880052  RH  022%=      5-min Rain = 0
KPD1 210426Z 18008KT 29/05 A2977 RMK A01 T02870052  RH  022%=      5-min Rain = 0
KPD1 210427Z 17006KT 29/05 A2977 RMK A01 T02870052  RH  023%=      5-min Rain = 0
KPD1 210428Z 19007KT 29/05 A2977 RMK A01 T02870054  RH  023%=      5-min Rain = 0
KPD1 210429Z 18008KT 29/05 A2977 RMK A01 T02860054  RH  023%=      5-min Rain = 0
KPD1 210430Z 18010KT 29/06 A2977 RMK A01 T02850055  RH  023%=      5-min Rain = 0
KPD1 210431Z 18009KT 29/06 A2977 RMK A01 T02850055  RH  023%=      5-min Rain = 0
KPD1 210432Z 18008KT 29/06 A2977 RMK A01 T02850056  RH  023%=      5-min Rain = 0
KPD1 210433Z 18005KT 28/06 A2977 RMK A01 T02830056  RH  024%=      5-min Rain = 0
KPD1 210434Z 19007KT 28/06 A2977 RMK A01 T02820057  RH  024%=      5-min Rain = 0
KPD1 210435Z 18008KT 28/06 A2977 RMK A01 T02810056  RH  024%=      5-min Rain = 0
KPD1 210436Z 19007KT 28/06 A2977 RMK A01 T02810055  RH  024%=      5-min Rain = 0
KPD1 210437Z 19005KT 28/06 A2977 RMK A01 T02800057  RH  024%=      5-min Rain = 0
KPD1 210438Z 19007KT 28/06 A2977 RMK A01 T02790057  RH  024%=      5-min Rain = 0
KPD1 210439Z 19009KT 28/06 A2976 RMK A01 T02780057  RH  024%=      5-min Rain = 0
KPD1 210440Z 19007KT 28/06 A2976 RMK A01 T02780056  RH  024%=      5-min Rain = 0
KPD1 210441Z 19006G11KT 28/06 A2976 RMK A01 T02790058  RH  025%=      5-min Rain = 0
KPD1 210442Z 19007G12KT 28/06 A2976 RMK A01 T02770058  RH  025%=      5-min Rain = 0
KPD1 210443Z 19006KT 28/06 A2976 RMK A01 T02770057  RH  025%=      5-min Rain = 0
KPD1 210444Z 19006KT 28/06 A2976 RMK A01 T02770058  RH  025%=      5-min Rain = 0
KPD1 210445Z 19006KT 28/06 A2976 RMK A01 T02750059  RH  025%=      5-min Rain = 0
KPD1 210446Z 20006KT 27/06 A2976 RMK A01 T02740059  RH  025%=      5-min Rain = 0
KPD1 210447Z 19005KT 27/06 A2976 RMK A01 T02730060  RH  026%=      5-min Rain = 0
KPD1 210448Z 19005KT 27/06 A2976 RMK A01 T02720061  RH  026%=      5-min Rain = 0
KPD1 210449Z 20006KT 27/06 A2976 RMK A01 T02700060  RH  026%=      5-min Rain = 0
KPD1 210450Z 18006KT 27/06 A2976 RMK A01 T02700060  RH  026%=      5-min Rain = 0
KPD1 210451Z 18005KT 27/06 A2976 RMK A01 T02700060  RH  026%=      5-min Rain = 0
KPD1 210452Z 18004KT 27/06 A2976 RMK A01 T02690060  RH  026%=      5-min Rain = 0
KPD1 210453Z 18007KT 27/06 A2976 RMK A01 T02690059  RH  026%=      5-min Rain = 0
KPD1 210454Z 16005KT 27/06 A2976 RMK A01 T02680058  RH  026%=      5-min Rain = 0
KPD1 210455Z 17004KT 27/06 A2976 RMK A01 T02690059  RH  026%=      5-min Rain = 0
KPD1 210456Z 17006KT 27/06 A2976 RMK A01 T02680059  RH  026%=      5-min Rain = 0
KPD1 210457Z 17006KT 27/06 A2976 RMK A01 T02670060  RH  027%=      5-min Rain = 0
KPD1 210458Z 17007KT 27/06 A2976 RMK A01 T02670059  RH  027%=      5-min Rain = 0
KPD1 210459Z 17006KT 27/06 A2976 RMK A01 T02670058  RH  026%=      5-min Rain = 0

Page generated in 0.0782 seconds.